UAL969 EHAM-KSFO
Flight info
| Callsign | UAL969 |
|---|---|
| Flight time | 10h 25m |
| Altitude | 36000 |
| Route | BERGI M90 LONAM DCT ODMIX DCT SOSAR/M082F360 DCT 65N010W 68N020W 69N030W 70N040W/M082F380 70N050W 70N060W DCT ADSAM/N0473F380 DCT 69N080W 65N096W 60N107W/N0469F400 DCT YMM DCT KS90G DCT RBL/N0468F410 DCT MRRLO BDEGA4 |
| Aircraft | B772/H-SDE2E3FGHIJ5LORVWXY/LB1D1 |
Departure
| Time | 2026-04-07 09:19 |
|---|---|
| Airport | Amsterdam Airport Schiphol (EHAM) |
Arrival
| Time | 2026-04-07 19:45 |
|---|---|
| Airport | San Francisco International Airport (KSFO) |
| Time | Latitude | Longitude | Altitude | Speed | Heading |
|---|---|---|---|---|---|
| 2026-04-07 08:28 | 52.31095 | 4.76464 | 3 ft | 0 kts | 123° |
| 2026-04-07 08:57 | 52.31102 | 4.76446 | 3 ft | 4 kts | 102° |
| 2026-04-07 08:57 | 52.31102 | 4.76421 | 4 ft | 3 kts | 148° |
| 2026-04-07 08:57 | 52.31122 | 4.76411 | 3 ft | 3 kts | 187° |
| 2026-04-07 08:57 | 52.31149 | 4.76417 | 3 ft | 4 kts | 187° |
| 2026-04-07 08:58 | 52.31175 | 4.76422 | 3 ft | 4 kts | 187° |
| 2026-04-07 08:58 | 52.31202 | 4.76427 | 3 ft | 4 kts | 187° |
| 2026-04-07 08:58 | 52.31229 | 4.76434 | 3 ft | 4 kts | 191° |
| 2026-04-07 08:58 | 52.31254 | 4.76445 | 5 ft | 4 kts | 203° |
| 2026-04-07 08:59 | 52.31279 | 4.76464 | 3 ft | 4 kts | 210° |
| 2026-04-07 08:59 | 52.31302 | 4.76487 | 3 ft | 4 kts | 212° |
| 2026-04-07 08:59 | 52.31325 | 4.76512 | 4 ft | 4 kts | 212° |
| 2026-04-07 08:59 | 52.31347 | 4.76536 | 4 ft | 4 kts | 212° |
| 2026-04-07 09:00 | 52.31370 | 4.76561 | 4 ft | 4 kts | 213° |
| 2026-04-07 09:00 | 52.31369 | 4.76560 | 3 ft | 4 kts | 211° |
| 2026-04-07 09:00 | 52.31348 | 4.76533 | 4 ft | 4 kts | 228° |
| 2026-04-07 09:00 | 52.31340 | 4.76494 | 3 ft | 4 kts | 264° |
| 2026-04-07 09:01 | 52.31342 | 4.76461 | 3 ft | 4 kts | 280° |
| 2026-04-07 09:01 | 52.31357 | 4.76429 | 3 ft | 4 kts | 323° |
| 2026-04-07 09:01 | 52.31374 | 4.76419 | 3 ft | 0 kts | 342° |
| 2026-04-07 09:02 | 52.31379 | 4.76416 | 3 ft | 5 kts | 342° |
| 2026-04-07 09:03 | 52.31466 | 4.76370 | 3 ft | 15 kts | 341° |
| 2026-04-07 09:03 | 52.31534 | 4.76248 | 3 ft | 15 kts | 283° |
| 2026-04-07 09:03 | 52.31533 | 4.76076 | 3 ft | 15 kts | 266° |
| 2026-04-07 09:03 | 52.31528 | 4.75915 | 3 ft | 14 kts | 266° |
| 2026-04-07 09:04 | 52.31522 | 4.75761 | 3 ft | 14 kts | 266° |
| 2026-04-07 09:04 | 52.31517 | 4.75616 | 3 ft | 13 kts | 266° |
| 2026-04-07 09:04 | 52.31512 | 4.75477 | 3 ft | 10 kts | 266° |
| 2026-04-07 09:04 | 52.31508 | 4.75361 | 3 ft | 10 kts | 267° |
| 2026-04-07 09:05 | 52.31505 | 4.75246 | 3 ft | 10 kts | 267° |
| 2026-04-07 09:05 | 52.31501 | 4.75132 | 3 ft | 10 kts | 267° |
| 2026-04-07 09:05 | 52.31497 | 4.75017 | 3 ft | 10 kts | 267° |
| 2026-04-07 09:05 | 52.31493 | 4.74876 | 3 ft | 18 kts | 267° |
| 2026-04-07 09:06 | 52.31485 | 4.74632 | 3 ft | 22 kts | 266° |
| 2026-04-07 09:06 | 52.31477 | 4.74428 | 3 ft | 14 kts | 266° |
| 2026-04-07 09:06 | 52.31512 | 4.74314 | 3 ft | 10 kts | 336° |
| 2026-04-07 09:06 | 52.31584 | 4.74302 | 3 ft | 10 kts | 2° |
| 2026-04-07 09:07 | 52.31657 | 4.74309 | 3 ft | 10 kts | 3° |
| 2026-04-07 09:07 | 52.31729 | 4.74317 | 3 ft | 10 kts | 4° |
| 2026-04-07 09:07 | 52.31789 | 4.74322 | 3 ft | 8 kts | 2° |
| 2026-04-07 09:07 | 52.31846 | 4.74327 | 3 ft | 8 kts | 3° |
| 2026-04-07 09:08 | 52.31904 | 4.74333 | 3 ft | 8 kts | 3° |
| 2026-04-07 09:08 | 52.31961 | 4.74334 | 3 ft | 8 kts | 358° |
| 2026-04-07 09:08 | 52.32011 | 4.74296 | 3 ft | 8 kts | 316° |
| 2026-04-07 09:08 | 52.32032 | 4.74211 | 3 ft | 8 kts | 275° |
| 2026-04-07 09:09 | 52.32035 | 4.74118 | 3 ft | 8 kts | 273° |
| 2026-04-07 09:09 | 52.32037 | 4.74025 | 2 ft | 8 kts | 273° |
| 2026-04-07 09:09 | 52.32041 | 4.73932 | 2 ft | 8 kts | 273° |
| 2026-04-07 09:09 | 52.32043 | 4.73838 | 3 ft | 8 kts | 272° |
| 2026-04-07 09:10 | 52.32046 | 4.73745 | 4 ft | 8 kts | 273° |
| 2026-04-07 09:10 | 52.32051 | 4.73645 | 3 ft | 11 kts | 275° |
| 2026-04-07 09:10 | 52.32060 | 4.73497 | 3 ft | 14 kts | 276° |
| 2026-04-07 09:10 | 52.32097 | 4.73357 | 3 ft | 14 kts | 308° |
| 2026-04-07 09:11 | 52.32164 | 4.73248 | 3 ft | 14 kts | 318° |
| 2026-04-07 09:11 | 52.32234 | 4.73150 | 3 ft | 13 kts | 320° |
| 2026-04-07 09:11 | 52.32304 | 4.73054 | 3 ft | 13 kts | 320° |
| 2026-04-07 09:11 | 52.32373 | 4.72958 | 3 ft | 13 kts | 320° |
| 2026-04-07 09:12 | 52.32442 | 4.72862 | 3 ft | 13 kts | 320° |
| 2026-04-07 09:12 | 52.32512 | 4.72765 | 3 ft | 13 kts | 320° |
| 2026-04-07 09:12 | 52.32580 | 4.72667 | 3 ft | 13 kts | 317° |
| 2026-04-07 09:12 | 52.32648 | 4.72566 | 3 ft | 13 kts | 318° |
| 2026-04-07 09:13 | 52.32710 | 4.72457 | 3 ft | 13 kts | 311° |
| 2026-04-07 09:13 | 52.32770 | 4.72345 | 3 ft | 13 kts | 311° |
| 2026-04-07 09:13 | 52.32825 | 4.72227 | 3 ft | 13 kts | 296° |
| 2026-04-07 09:13 | 52.32837 | 4.72080 | 3 ft | 13 kts | 270° |
| 2026-04-07 09:14 | 52.32859 | 4.71939 | 3 ft | 13 kts | 302° |
| 2026-04-07 09:14 | 52.32915 | 4.71822 | 3 ft | 13 kts | 310° |
| 2026-04-07 09:14 | 52.32968 | 4.71724 | 3 ft | 11 kts | 312° |
| 2026-04-07 09:14 | 52.33018 | 4.71636 | 3 ft | 11 kts | 312° |
| 2026-04-07 09:15 | 52.33063 | 4.71541 | 3 ft | 11 kts | 300° |
| 2026-04-07 09:15 | 52.33068 | 4.71428 | 3 ft | 11 kts | 243° |
| 2026-04-07 09:15 | 52.33020 | 4.71339 | 3 ft | 11 kts | 224° |
| 2026-04-07 09:15 | 52.32965 | 4.71261 | 3 ft | 11 kts | 221° |
| 2026-04-07 09:16 | 52.32909 | 4.71183 | 3 ft | 11 kts | 224° |
| 2026-04-07 09:16 | 52.32869 | 4.71083 | 3 ft | 11 kts | 250° |
| 2026-04-07 09:16 | 52.32863 | 4.70982 | 2 ft | 5 kts | 273° |
| 2026-04-07 09:16 | 52.32871 | 4.70932 | 2 ft | 5 kts | 298° |
| 2026-04-07 09:17 | 52.32895 | 4.70902 | 2 ft | 4 kts | 342° |
| 2026-04-07 09:17 | 52.32915 | 4.70899 | 2 ft | 0 kts | 1° |
| 2026-04-07 09:18 | 52.32918 | 4.70899 | 2 ft | 5 kts | 1° |
| 2026-04-07 09:18 | 52.33754 | 4.70988 | 4 ft | 121 kts | 3° |
| 2026-04-07 09:18 | 52.34788 | 4.71031 | 6 ft | 174 kts | 355° |
| 2026-04-07 09:19 | 52.36090 | 4.70922 | 432 ft | 183 kts | 9° |
| 2026-04-07 09:19 | 52.37278 | 4.71177 | 1242 ft | 183 kts | 11° |
| 2026-04-07 09:19 | 52.38656 | 4.71372 | 1425 ft | 202 kts | 8° |
| 2026-04-07 09:19 | 52.40124 | 4.71511 | 1582 ft | 221 kts | 6° |
| 2026-04-07 09:20 | 52.41701 | 4.71635 | 1972 ft | 230 kts | 6° |
| 2026-04-07 09:20 | 52.43298 | 4.71215 | 2258 ft | 243 kts | 331° |
| 2026-04-07 09:20 | 52.44603 | 4.69355 | 2480 ft | 257 kts | 316° |
| 2026-04-07 09:20 | 52.45886 | 4.67257 | 2963 ft | 263 kts | 317° |
| 2026-04-07 09:21 | 52.47213 | 4.65165 | 3588 ft | 266 kts | 319° |
| 2026-04-07 09:21 | 52.48572 | 4.63108 | 4067 ft | 268 kts | 316° |
| 2026-04-07 09:21 | 52.49838 | 4.60837 | 4638 ft | 272 kts | 314° |
| 2026-04-07 09:21 | 52.51130 | 4.58599 | 5311 ft | 269 kts | 317° |
| 2026-04-07 09:22 | 52.52606 | 4.56770 | 5820 ft | 265 kts | 333° |
| 2026-04-07 09:22 | 52.54245 | 4.55297 | 6282 ft | 270 kts | 332° |
| 2026-04-07 09:22 | 52.55880 | 4.53830 | 6942 ft | 268 kts | 332° |
| 2026-04-07 09:22 | 52.57519 | 4.52311 | 7435 ft | 272 kts | 330° |
| 2026-04-07 09:23 | 52.59148 | 4.50721 | 8063 ft | 272 kts | 329° |
| 2026-04-07 09:23 | 52.60770 | 4.49162 | 8639 ft | 274 kts | 330° |
| 2026-04-07 09:23 | 52.62436 | 4.47615 | 9317 ft | 273 kts | 330° |
| 2026-04-07 09:23 | 52.64094 | 4.46069 | 9857 ft | 276 kts | 329° |
| 2026-04-07 09:24 | 52.65786 | 4.44487 | 10340 ft | 282 kts | 330° |
| 2026-04-07 09:24 | 52.67516 | 4.42880 | 10750 ft | 292 kts | 330° |
| 2026-04-07 09:24 | 52.69336 | 4.41170 | 10892 ft | 311 kts | 330° |
| 2026-04-07 09:24 | 52.71273 | 4.39339 | 11043 ft | 331 kts | 330° |
| 2026-04-07 09:25 | 52.73317 | 4.37405 | 11390 ft | 344 kts | 330° |
| 2026-04-07 09:25 | 52.75437 | 4.35564 | 11884 ft | 345 kts | 339° |
| 2026-04-07 09:25 | 52.77792 | 4.34532 | 12352 ft | 354 kts | 348° |
| 2026-04-07 09:25 | 52.80218 | 4.33745 | 13043 ft | 357 kts | 348° |
| 2026-04-07 09:26 | 52.82659 | 4.32911 | 13759 ft | 359 kts | 347° |
| 2026-04-07 09:26 | 52.85102 | 4.32041 | 14420 ft | 361 kts | 347° |
| 2026-04-07 09:26 | 52.87573 | 4.31137 | 14988 ft | 365 kts | 347° |
| 2026-04-07 09:26 | 52.90067 | 4.30210 | 15568 ft | 369 kts | 346° |
| 2026-04-07 09:27 | 52.92583 | 4.29267 | 16143 ft | 372 kts | 346° |
| 2026-04-07 09:27 | 52.95088 | 4.28338 | 16714 ft | 375 kts | 347° |
| 2026-04-07 09:27 | 52.97641 | 4.27368 | 17259 ft | 378 kts | 346° |
| 2026-04-07 09:27 | 53.00216 | 4.26363 | 17750 ft | 383 kts | 346° |
| 2026-04-07 09:28 | 53.02830 | 4.25378 | 18291 ft | 387 kts | 346° |
| 2026-04-07 09:28 | 53.05462 | 4.24390 | 18863 ft | 389 kts | 346° |
| 2026-04-07 09:28 | 53.08107 | 4.23393 | 19369 ft | 392 kts | 346° |
| 2026-04-07 09:28 | 53.10780 | 4.22387 | 19862 ft | 395 kts | 346° |
| 2026-04-07 09:29 | 53.13472 | 4.21373 | 20352 ft | 398 kts | 345° |
| 2026-04-07 09:29 | 53.16181 | 4.20352 | 20830 ft | 401 kts | 345° |
| 2026-04-07 09:29 | 53.18913 | 4.19320 | 21317 ft | 403 kts | 345° |
| 2026-04-07 09:29 | 53.21658 | 4.18282 | 21856 ft | 405 kts | 345° |
| 2026-04-07 09:30 | 53.23483 | 4.17591 | 22187 ft | 407 kts | 345° |
| 2026-04-07 09:30 | 53.26257 | 4.16538 | 22654 ft | 410 kts | 345° |
| 2026-04-07 09:30 | 53.29056 | 4.15475 | 23120 ft | 414 kts | 345° |
| 2026-04-07 09:30 | 53.31875 | 4.14403 | 23612 ft | 417 kts | 345° |
| 2026-04-07 09:31 | 53.34709 | 4.13324 | 24073 ft | 420 kts | 344° |
| 2026-04-07 09:31 | 53.37567 | 4.12234 | 24471 ft | 422 kts | 344° |
| 2026-04-07 09:31 | 53.40442 | 4.11136 | 24848 ft | 427 kts | 344° |
| 2026-04-07 09:31 | 53.43353 | 4.10022 | 25162 ft | 432 kts | 344° |
| 2026-04-07 09:32 | 53.46295 | 4.08897 | 25569 ft | 434 kts | 344° |
| 2026-04-07 09:32 | 53.49243 | 4.07768 | 26043 ft | 435 kts | 344° |
| 2026-04-07 09:32 | 53.52201 | 4.06632 | 26466 ft | 437 kts | 344° |
| 2026-04-07 09:32 | 53.55173 | 4.05488 | 26842 ft | 440 kts | 344° |
| 2026-04-07 09:33 | 53.58171 | 4.04331 | 27211 ft | 443 kts | 344° |
| 2026-04-07 09:33 | 53.61183 | 4.03167 | 27569 ft | 446 kts | 344° |
| 2026-04-07 09:33 | 53.64218 | 4.01993 | 27937 ft | 448 kts | 344° |
| 2026-04-07 09:33 | 53.67260 | 4.00814 | 28303 ft | 451 kts | 344° |
| 2026-04-07 09:34 | 53.70324 | 3.99621 | 28686 ft | 452 kts | 344° |
| 2026-04-07 09:34 | 53.73395 | 3.98427 | 29054 ft | 454 kts | 344° |
| 2026-04-07 09:34 | 53.76479 | 3.97228 | 29369 ft | 457 kts | 344° |
| 2026-04-07 09:34 | 53.79592 | 3.96017 | 29672 ft | 459 kts | 344° |
| 2026-04-07 09:35 | 53.82711 | 3.94772 | 29938 ft | 461 kts | 342° |
| 2026-04-07 09:35 | 53.85774 | 3.93146 | 30224 ft | 461 kts | 335° |
| 2026-04-07 09:35 | 53.88732 | 3.91030 | 30516 ft | 462 kts | 333° |
| 2026-04-07 09:35 | 53.91644 | 3.88865 | 30753 ft | 464 kts | 333° |
| 2026-04-07 09:36 | 53.94611 | 3.86651 | 31002 ft | 465 kts | 333° |
| 2026-04-07 09:36 | 53.97581 | 3.84443 | 31252 ft | 467 kts | 333° |
| 2026-04-07 09:36 | 54.00566 | 3.82234 | 31451 ft | 469 kts | 333° |
| 2026-04-07 09:36 | 54.03563 | 3.80024 | 31653 ft | 470 kts | 333° |
| 2026-04-07 09:37 | 54.06575 | 3.77809 | 31903 ft | 470 kts | 333° |
| 2026-04-07 09:37 | 54.09574 | 3.75606 | 32196 ft | 469 kts | 333° |
| 2026-04-07 09:37 | 54.12571 | 3.73403 | 32500 ft | 469 kts | 333° |
| 2026-04-07 09:37 | 54.15567 | 3.71197 | 32780 ft | 468 kts | 333° |
| 2026-04-07 09:38 | 54.18564 | 3.68988 | 32931 ft | 471 kts | 333° |
| 2026-04-07 09:38 | 54.21574 | 3.66745 | 33114 ft | 472 kts | 333° |
| 2026-04-07 09:38 | 54.24573 | 3.64511 | 33383 ft | 470 kts | 333° |
| 2026-04-07 09:38 | 54.27542 | 3.62290 | 33653 ft | 470 kts | 333° |
| 2026-04-07 09:39 | 54.30545 | 3.60074 | 33937 ft | 469 kts | 333° |
| 2026-04-07 09:39 | 54.33537 | 3.57867 | 34229 ft | 469 kts | 333° |
| 2026-04-07 09:39 | 54.36544 | 3.55639 | 34344 ft | 471 kts | 333° |
| 2026-04-07 09:39 | 54.39553 | 3.53399 | 34401 ft | 471 kts | 333° |
| 2026-04-07 09:40 | 54.45557 | 3.48909 | 34426 ft | 468 kts | 333° |
| 2026-04-07 09:40 | 54.51497 | 3.44450 | 34420 ft | 464 kts | 333° |
| 2026-04-07 09:41 | 54.57397 | 3.40006 | 34422 ft | 462 kts | 333° |
| 2026-04-07 09:41 | 54.63282 | 3.35557 | 34423 ft | 462 kts | 333° |
| 2026-04-07 09:42 | 54.69178 | 3.31088 | 34421 ft | 463 kts | 333° |
| 2026-04-07 09:42 | 54.75086 | 3.26597 | 34429 ft | 464 kts | 333° |
| 2026-04-07 09:43 | 54.80999 | 3.22062 | 34402 ft | 466 kts | 332° |
| 2026-04-07 09:43 | 54.86954 | 3.17602 | 34419 ft | 467 kts | 333° |
| 2026-04-07 09:44 | 54.92875 | 3.13057 | 34421 ft | 468 kts | 332° |
| 2026-04-07 09:44 | 54.98847 | 3.08408 | 34426 ft | 470 kts | 332° |
| 2026-04-07 09:45 | 55.04825 | 3.03767 | 34414 ft | 470 kts | 332° |
| 2026-04-07 09:45 | 55.10809 | 2.99126 | 34413 ft | 471 kts | 332° |
| 2026-04-07 09:46 | 55.16794 | 2.94474 | 34414 ft | 470 kts | 332° |
| 2026-04-07 09:46 | 55.22771 | 2.89813 | 34411 ft | 470 kts | 332° |
| 2026-04-07 09:47 | 55.28697 | 2.85176 | 34399 ft | 468 kts | 332° |
| 2026-04-07 09:47 | 55.34614 | 2.80529 | 34413 ft | 465 kts | 332° |
| 2026-04-07 09:48 | 55.40510 | 2.75883 | 34424 ft | 464 kts | 332° |
| 2026-04-07 09:48 | 55.46418 | 2.71236 | 34407 ft | 466 kts | 332° |
| 2026-04-07 09:49 | 55.52345 | 2.66519 | 34409 ft | 468 kts | 332° |
| 2026-04-07 09:49 | 55.58291 | 2.61776 | 34411 ft | 469 kts | 332° |
| 2026-04-07 09:50 | 55.64253 | 2.57014 | 34409 ft | 470 kts | 332° |
| 2026-04-07 09:50 | 55.70225 | 2.52230 | 34409 ft | 471 kts | 332° |
| 2026-04-07 09:51 | 55.76202 | 2.47426 | 34424 ft | 471 kts | 332° |
| 2026-04-07 09:51 | 55.82129 | 2.42646 | 34403 ft | 470 kts | 332° |
| 2026-04-07 09:52 | 55.88078 | 2.37832 | 34397 ft | 469 kts | 332° |
| 2026-04-07 09:52 | 55.94009 | 2.33016 | 34402 ft | 468 kts | 332° |
| 2026-04-07 09:53 | 55.99930 | 2.28192 | 34404 ft | 467 kts | 332° |
| 2026-04-07 09:53 | 56.05795 | 2.23269 | 34396 ft | 465 kts | 331° |
| 2026-04-07 09:54 | 56.11770 | 2.18472 | 34399 ft | 474 kts | 332° |
| 2026-04-07 09:54 | 56.17780 | 2.13570 | 34396 ft | 475 kts | 332° |
| 2026-04-07 09:55 | 56.23792 | 2.08591 | 34401 ft | 476 kts | 331° |
| 2026-04-07 09:55 | 56.29775 | 2.03621 | 34403 ft | 476 kts | 332° |
| 2026-04-07 09:56 | 56.35786 | 1.98621 | 34388 ft | 475 kts | 332° |
| 2026-04-07 09:56 | 56.41785 | 1.93616 | 34386 ft | 473 kts | 332° |
| 2026-04-07 09:57 | 56.47757 | 1.88615 | 34389 ft | 471 kts | 332° |
| 2026-04-07 09:57 | 56.53699 | 1.83621 | 34385 ft | 470 kts | 332° |
| 2026-04-07 09:58 | 56.59628 | 1.78619 | 34393 ft | 470 kts | 332° |
| 2026-04-07 09:58 | 56.65554 | 1.73602 | 34398 ft | 470 kts | 332° |
| 2026-04-07 09:59 | 56.71526 | 1.68663 | 34381 ft | 472 kts | 332° |
| 2026-04-07 09:59 | 56.77455 | 1.63523 | 34387 ft | 473 kts | 331° |
| 2026-04-07 10:00 | 56.83415 | 1.58373 | 34388 ft | 475 kts | 332° |
| 2026-04-07 10:00 | 56.89402 | 1.53239 | 34381 ft | 476 kts | 332° |
| 2026-04-07 10:01 | 56.95406 | 1.48076 | 34381 ft | 477 kts | 332° |
| 2026-04-07 10:01 | 57.01468 | 1.43067 | 34375 ft | 479 kts | 334° |
| 2026-04-07 10:02 | 57.07608 | 1.38474 | 34369 ft | 479 kts | 335° |
| 2026-04-07 10:02 | 57.13782 | 1.33877 | 34378 ft | 479 kts | 334° |
| 2026-04-07 10:03 | 57.19945 | 1.29202 | 34376 ft | 477 kts | 334° |
| 2026-04-07 10:03 | 57.26074 | 1.24495 | 34377 ft | 476 kts | 334° |
| 2026-04-07 10:04 | 57.32178 | 1.19778 | 34361 ft | 475 kts | 334° |
| 2026-04-07 10:04 | 57.38306 | 1.15108 | 34358 ft | 477 kts | 334° |
| 2026-04-07 10:05 | 57.44429 | 1.10333 | 34361 ft | 477 kts | 333° |
| 2026-04-07 10:05 | 57.50517 | 1.05533 | 34361 ft | 478 kts | 333° |
| 2026-04-07 10:06 | 57.56654 | 1.00708 | 34359 ft | 479 kts | 334° |
| 2026-04-07 10:06 | 57.62799 | 0.95877 | 34348 ft | 479 kts | 334° |
| 2026-04-07 10:07 | 57.68943 | 0.91034 | 34356 ft | 480 kts | 333° |
| 2026-04-07 10:07 | 57.75101 | 0.86160 | 34349 ft | 480 kts | 333° |
| 2026-04-07 10:08 | 57.81248 | 0.81276 | 34347 ft | 479 kts | 333° |
| 2026-04-07 10:08 | 57.87383 | 0.76383 | 34347 ft | 479 kts | 333° |
| 2026-04-07 10:09 | 57.93472 | 0.71508 | 34349 ft | 478 kts | 333° |
| 2026-04-07 10:09 | 57.99602 | 0.66582 | 34337 ft | 478 kts | 333° |
| 2026-04-07 10:10 | 58.05718 | 0.61649 | 34333 ft | 478 kts | 333° |
| 2026-04-07 10:10 | 58.11887 | 0.56891 | 34342 ft | 478 kts | 333° |
| 2026-04-07 10:11 | 58.17959 | 0.51771 | 34338 ft | 479 kts | 332° |
| 2026-04-07 10:11 | 58.24072 | 0.46673 | 34336 ft | 481 kts | 332° |
| 2026-04-07 10:12 | 58.30236 | 0.41644 | 34333 ft | 482 kts | 332° |
| 2026-04-07 10:12 | 58.36366 | 0.36636 | 34329 ft | 483 kts | 332° |
| 2026-04-07 10:13 | 58.42539 | 0.31556 | 34323 ft | 483 kts | 332° |
| 2026-04-07 10:13 | 58.48707 | 0.26449 | 34333 ft | 483 kts | 332° |
| 2026-04-07 10:14 | 58.54873 | 0.21323 | 34315 ft | 483 kts | 332° |
| 2026-04-07 10:14 | 58.61024 | 0.16188 | 34314 ft | 482 kts | 332° |
| 2026-04-07 10:15 | 58.67169 | 0.11040 | 34314 ft | 481 kts | 332° |
| 2026-04-07 10:15 | 58.72263 | 0.06757 | 34315 ft | 480 kts | 332° |
| 2026-04-07 10:16 | 58.78385 | 0.01591 | 34313 ft | 480 kts | 332° |
| 2026-04-07 10:16 | 58.84506 | -0.03608 | 34311 ft | 481 kts | 332° |
| 2026-04-07 10:17 | 58.90673 | -0.08742 | 34309 ft | 483 kts | 331° |
| 2026-04-07 10:17 | 58.96822 | -0.14045 | 34310 ft | 484 kts | 331° |
| 2026-04-07 10:18 | 59.02991 | -0.19372 | 34317 ft | 486 kts | 331° |
| 2026-04-07 10:18 | 59.09181 | -0.24706 | 34306 ft | 486 kts | 331° |
| 2026-04-07 10:19 | 59.18456 | -0.32721 | 34296 ft | 485 kts | 331° |
| 2026-04-07 10:20 | 59.24576 | -0.38036 | 34298 ft | 484 kts | 331° |
| 2026-04-07 10:20 | 59.30716 | -0.43392 | 34290 ft | 483 kts | 331° |
| 2026-04-07 10:21 | 59.36853 | -0.48768 | 34301 ft | 482 kts | 331° |
| 2026-04-07 10:21 | 59.42979 | -0.54155 | 34293 ft | 482 kts | 331° |
| 2026-04-07 10:22 | 59.49093 | -0.59554 | 34272 ft | 482 kts | 331° |
| 2026-04-07 10:22 | 59.55214 | -0.64979 | 34288 ft | 482 kts | 331° |
| 2026-04-07 10:23 | 59.61335 | -0.70426 | 34291 ft | 483 kts | 331° |
| 2026-04-07 10:23 | 59.67469 | -0.75908 | 34281 ft | 483 kts | 330° |
| 2026-04-07 10:24 | 59.73551 | -0.81365 | 34270 ft | 484 kts | 330° |
| 2026-04-07 10:24 | 59.79682 | -0.86886 | 34269 ft | 484 kts | 330° |
| 2026-04-07 10:25 | 59.85851 | -0.92465 | 34269 ft | 484 kts | 330° |
| 2026-04-07 10:25 | 59.91938 | -0.97992 | 34276 ft | 484 kts | 330° |
| 2026-04-07 10:26 | 59.98066 | -1.03580 | 34267 ft | 484 kts | 330° |
| 2026-04-07 10:26 | 60.04188 | -1.09185 | 34261 ft | 484 kts | 330° |
| 2026-04-07 10:27 | 60.10313 | -1.14816 | 34261 ft | 484 kts | 330° |
| 2026-04-07 10:27 | 60.16439 | -1.20471 | 34261 ft | 484 kts | 330° |
| 2026-04-07 10:28 | 60.22556 | -1.26141 | 34260 ft | 484 kts | 330° |
| 2026-04-07 10:28 | 60.28672 | -1.31831 | 34255 ft | 484 kts | 330° |
| 2026-04-07 10:29 | 60.34754 | -1.37516 | 34248 ft | 486 kts | 330° |
| 2026-04-07 10:29 | 60.40884 | -1.43271 | 34239 ft | 486 kts | 329° |
| 2026-04-07 10:30 | 60.47026 | -1.49058 | 34256 ft | 487 kts | 329° |
| 2026-04-07 10:30 | 60.53182 | -1.54883 | 34242 ft | 487 kts | 329° |
| 2026-04-07 10:31 | 60.59329 | -1.60725 | 34234 ft | 487 kts | 329° |
| 2026-04-07 10:31 | 60.65473 | -1.66586 | 34220 ft | 487 kts | 329° |
| 2026-04-07 10:32 | 60.71596 | -1.72454 | 34219 ft | 486 kts | 329° |
| 2026-04-07 10:32 | 60.77676 | -1.78306 | 34230 ft | 486 kts | 329° |
| 2026-04-07 10:33 | 60.83801 | -1.84226 | 34225 ft | 486 kts | 329° |
| 2026-04-07 10:33 | 60.89912 | -1.90156 | 34211 ft | 486 kts | 329° |
| 2026-04-07 10:34 | 60.96027 | -1.96114 | 34211 ft | 486 kts | 329° |
| 2026-04-07 10:34 | 61.01864 | -2.02930 | 34218 ft | 478 kts | 318° |
| 2026-04-07 10:35 | 61.07030 | -2.11451 | 34222 ft | 476 kts | 314° |
| 2026-04-07 10:35 | 61.12181 | -2.20199 | 34383 ft | 481 kts | 314° |
| 2026-04-07 10:35 | 61.14768 | -2.24573 | 34633 ft | 479 kts | 315° |
| 2026-04-07 10:36 | 61.17349 | -2.28923 | 34924 ft | 477 kts | 315° |
| 2026-04-07 10:36 | 61.19925 | -2.33260 | 35188 ft | 476 kts | 315° |
| 2026-04-07 10:36 | 61.22465 | -2.37538 | 35411 ft | 476 kts | 315° |
| 2026-04-07 10:36 | 61.25037 | -2.41875 | 35608 ft | 476 kts | 315° |
| 2026-04-07 10:37 | 61.27604 | -2.46213 | 35844 ft | 475 kts | 315° |
| 2026-04-07 10:37 | 61.30167 | -2.50553 | 36059 ft | 475 kts | 315° |
| 2026-04-07 10:37 | 61.32734 | -2.54913 | 36134 ft | 476 kts | 314° |
| 2026-04-07 10:38 | 61.37858 | -2.63644 | 36182 ft | 476 kts | 314° |
| 2026-04-07 10:38 | 61.42980 | -2.72408 | 36179 ft | 475 kts | 314° |
| 2026-04-07 10:39 | 61.48089 | -2.81187 | 36184 ft | 474 kts | 314° |
| 2026-04-07 10:39 | 61.53142 | -2.89964 | 36145 ft | 474 kts | 313° |
| 2026-04-07 10:40 | 61.58227 | -2.98803 | 36164 ft | 475 kts | 314° |
| 2026-04-07 10:40 | 61.63348 | -3.07669 | 36176 ft | 477 kts | 314° |
| 2026-04-07 10:41 | 61.68480 | -3.16626 | 36163 ft | 480 kts | 314° |
| 2026-04-07 10:41 | 61.73618 | -3.25654 | 36163 ft | 481 kts | 314° |
| 2026-04-07 10:42 | 61.78765 | -3.34739 | 36162 ft | 482 kts | 313° |
| 2026-04-07 10:42 | 61.83888 | -3.43821 | 36144 ft | 483 kts | 313° |
| 2026-04-07 10:43 | 61.89035 | -3.52988 | 36167 ft | 483 kts | 313° |
| 2026-04-07 10:43 | 61.94141 | -3.62122 | 36166 ft | 483 kts | 313° |
| 2026-04-07 10:44 | 61.99269 | -3.71340 | 36153 ft | 482 kts | 313° |
| 2026-04-07 10:44 | 62.04382 | -3.80571 | 36133 ft | 481 kts | 313° |
| 2026-04-07 10:45 | 62.09483 | -3.89820 | 36133 ft | 480 kts | 313° |
| 2026-04-07 10:45 | 62.14554 | -3.99060 | 36131 ft | 479 kts | 313° |
| 2026-04-07 10:46 | 62.19622 | -4.08338 | 36110 ft | 479 kts | 313° |
| 2026-04-07 10:46 | 62.24671 | -4.17623 | 36114 ft | 478 kts | 312° |
| 2026-04-07 10:47 | 62.29680 | -4.26876 | 36114 ft | 477 kts | 312° |
| 2026-04-07 10:47 | 62.34711 | -4.36214 | 36111 ft | 477 kts | 312° |
| 2026-04-07 10:48 | 62.39732 | -4.45576 | 36105 ft | 478 kts | 312° |
| 2026-04-07 10:48 | 62.44751 | -4.54978 | 36107 ft | 478 kts | 312° |
| 2026-04-07 10:49 | 62.49770 | -4.64422 | 36110 ft | 479 kts | 311° |
| 2026-04-07 10:49 | 62.54790 | -4.73911 | 36088 ft | 479 kts | 311° |
| 2026-04-07 10:50 | 62.59812 | -4.83448 | 36088 ft | 479 kts | 311° |
| 2026-04-07 10:50 | 62.64818 | -4.93000 | 36087 ft | 479 kts | 311° |
| 2026-04-07 10:51 | 62.69798 | -5.02545 | 36087 ft | 480 kts | 311° |
| 2026-04-07 10:51 | 62.74807 | -5.12193 | 36096 ft | 480 kts | 311° |
| 2026-04-07 10:52 | 62.79809 | -5.21872 | 36105 ft | 480 kts | 311° |
| 2026-04-07 10:52 | 62.84806 | -5.31588 | 36073 ft | 481 kts | 311° |
| 2026-04-07 10:53 | 62.89796 | -5.41337 | 36054 ft | 480 kts | 311° |
| 2026-04-07 10:53 | 62.94778 | -5.51115 | 36052 ft | 480 kts | 311° |
| 2026-04-07 10:54 | 62.99722 | -5.60866 | 36051 ft | 480 kts | 311° |
| 2026-04-07 10:54 | 63.04692 | -5.70715 | 36057 ft | 480 kts | 310° |
| 2026-04-07 10:55 | 63.09652 | -5.80591 | 36025 ft | 480 kts | 310° |
| 2026-04-07 10:55 | 63.14604 | -5.90497 | 36043 ft | 480 kts | 310° |
| 2026-04-07 10:56 | 63.19551 | -6.00442 | 36043 ft | 480 kts | 310° |
| 2026-04-07 10:56 | 63.24495 | -6.10386 | 36031 ft | 480 kts | 310° |
| 2026-04-07 10:57 | 63.29695 | -6.19485 | 36006 ft | 467 kts | 308° |
| 2026-04-07 10:57 | 63.34074 | -6.30054 | 36031 ft | 468 kts | 304° |
| 2026-04-07 10:58 | 63.38769 | -6.40305 | 36028 ft | 482 kts | 309° |
| 2026-04-07 10:58 | 63.43830 | -6.50350 | 36008 ft | 488 kts | 310° |
| 2026-04-07 10:59 | 63.48889 | -6.60497 | 35995 ft | 488 kts | 309° |
| 2026-04-07 10:59 | 63.53888 | -6.70793 | 35995 ft | 488 kts | 309° |
| 2026-04-07 11:00 | 63.58860 | -6.81187 | 36007 ft | 488 kts | 308° |
| 2026-04-07 11:00 | 63.63812 | -6.91608 | 35970 ft | 488 kts | 308° |
| 2026-04-07 11:01 | 63.68731 | -7.02003 | 35989 ft | 489 kts | 308° |
| 2026-04-07 11:01 | 63.73695 | -7.12540 | 35970 ft | 490 kts | 308° |
| 2026-04-07 11:02 | 63.78657 | -7.23122 | 35947 ft | 492 kts | 308° |
| 2026-04-07 11:02 | 63.83620 | -7.33755 | 35960 ft | 491 kts | 307° |
| 2026-04-07 11:03 | 63.88577 | -7.44431 | 35961 ft | 492 kts | 307° |
| 2026-04-07 11:03 | 63.93534 | -7.55166 | 35937 ft | 492 kts | 307° |
| 2026-04-07 11:04 | 63.98451 | -7.65866 | 35931 ft | 491 kts | 307° |
| 2026-04-07 11:04 | 64.03382 | -7.76654 | 35934 ft | 491 kts | 307° |
| 2026-04-07 11:05 | 64.07510 | -7.85727 | 35931 ft | 491 kts | 307° |
| 2026-04-07 11:05 | 64.12400 | -7.96529 | 35927 ft | 493 kts | 307° |
| 2026-04-07 11:06 | 64.17340 | -8.07502 | 35911 ft | 496 kts | 306° |
| 2026-04-07 11:06 | 64.22296 | -8.18565 | 35915 ft | 497 kts | 306° |
| 2026-04-07 11:07 | 64.27249 | -8.29673 | 35912 ft | 498 kts | 306° |
| 2026-04-07 11:07 | 64.32203 | -8.40844 | 35905 ft | 498 kts | 306° |
| 2026-04-07 11:08 | 64.37152 | -8.52063 | 35905 ft | 498 kts | 306° |
| 2026-04-07 11:08 | 64.42086 | -8.63307 | 35904 ft | 497 kts | 306° |
| 2026-04-07 11:09 | 64.46998 | -8.74565 | 35899 ft | 496 kts | 306° |
| 2026-04-07 11:09 | 64.51893 | -8.85844 | 35893 ft | 496 kts | 306° |
| 2026-04-07 11:10 | 64.56785 | -8.97178 | 35893 ft | 496 kts | 306° |
| 2026-04-07 11:10 | 64.61628 | -9.08456 | 35890 ft | 495 kts | 305° |
| 2026-04-07 11:11 | 64.66493 | -9.19847 | 35892 ft | 495 kts | 305° |
| 2026-04-07 11:11 | 64.71355 | -9.31293 | 35896 ft | 496 kts | 305° |
| 2026-04-07 11:12 | 64.76206 | -9.42774 | 35889 ft | 496 kts | 305° |
| 2026-04-07 11:12 | 64.81048 | -9.54297 | 35871 ft | 496 kts | 305° |
| 2026-04-07 11:13 | 64.85883 | -9.65866 | 35871 ft | 495 kts | 305° |
| 2026-04-07 11:13 | 64.90709 | -9.77474 | 35871 ft | 495 kts | 304° |
| 2026-04-07 11:14 | 64.95516 | -9.89099 | 35912 ft | 496 kts | 304° |
| 2026-04-07 11:14 | 65.00307 | -10.00749 | 35867 ft | 498 kts | 304° |
| 2026-04-07 11:15 | 65.04938 | -10.12816 | 35854 ft | 494 kts | 301° |
| 2026-04-07 11:15 | 65.09412 | -10.25142 | 35855 ft | 493 kts | 301° |
| 2026-04-07 11:16 | 65.13889 | -10.37487 | 35833 ft | 493 kts | 301° |
| 2026-04-07 11:16 | 65.18392 | -10.49840 | 35833 ft | 494 kts | 301° |
| 2026-04-07 11:17 | 65.22898 | -10.62210 | 35833 ft | 494 kts | 301° |
| 2026-04-07 11:17 | 65.27392 | -10.74613 | 35818 ft | 494 kts | 301° |
| 2026-04-07 11:18 | 65.31880 | -10.87076 | 35839 ft | 494 kts | 301° |
| 2026-04-07 11:18 | 65.36329 | -10.99510 | 35804 ft | 496 kts | 301° |
| 2026-04-07 11:19 | 65.40806 | -11.12088 | 35798 ft | 495 kts | 301° |
| 2026-04-07 11:19 | 65.45271 | -11.24707 | 35786 ft | 495 kts | 301° |
| 2026-04-07 11:20 | 65.49724 | -11.37362 | 35787 ft | 495 kts | 301° |
| 2026-04-07 11:20 | 65.54163 | -11.50054 | 35776 ft | 495 kts | 301° |
| 2026-04-07 11:21 | 65.58589 | -11.62781 | 35757 ft | 494 kts | 301° |
| 2026-04-07 11:21 | 65.62990 | -11.75509 | 35761 ft | 493 kts | 301° |
| 2026-04-07 11:22 | 65.67360 | -11.88222 | 35750 ft | 493 kts | 300° |
| 2026-04-07 11:22 | 65.71731 | -12.01017 | 35741 ft | 493 kts | 301° |
| 2026-04-07 11:23 | 65.76106 | -12.13897 | 35735 ft | 493 kts | 301° |
| 2026-04-07 11:23 | 65.80473 | -12.26825 | 35716 ft | 494 kts | 300° |
| 2026-04-07 11:24 | 65.84808 | -12.39736 | 35702 ft | 494 kts | 300° |
| 2026-04-07 11:24 | 65.89160 | -12.52776 | 35686 ft | 495 kts | 300° |
| 2026-04-07 11:25 | 65.95673 | -12.72431 | 35688 ft | 496 kts | 300° |
| 2026-04-07 11:25 | 66.00005 | -12.85606 | 35658 ft | 496 kts | 300° |
| 2026-04-07 11:26 | 66.04332 | -12.98842 | 35693 ft | 497 kts | 300° |
| 2026-04-07 11:26 | 66.08666 | -13.12189 | 35674 ft | 501 kts | 300° |
| 2026-04-07 11:27 | 66.13016 | -13.25661 | 35641 ft | 503 kts | 300° |
| 2026-04-07 11:27 | 66.17373 | -13.39234 | 35637 ft | 504 kts | 300° |
| 2026-04-07 11:28 | 66.21695 | -13.52778 | 35625 ft | 505 kts | 300° |
| 2026-04-07 11:28 | 66.26040 | -13.66481 | 35627 ft | 505 kts | 300° |
| 2026-04-07 11:29 | 66.30378 | -13.80250 | 35611 ft | 506 kts | 300° |
| 2026-04-07 11:29 | 66.34709 | -13.94086 | 35605 ft | 506 kts | 300° |
| 2026-04-07 11:30 | 66.39029 | -14.07968 | 35599 ft | 507 kts | 300° |
| 2026-04-07 11:30 | 66.43317 | -14.21833 | 35626 ft | 508 kts | 300° |
| 2026-04-07 11:31 | 66.47629 | -14.35876 | 35593 ft | 509 kts | 300° |
| 2026-04-07 11:31 | 66.51927 | -14.49955 | 35578 ft | 509 kts | 300° |
| 2026-04-07 11:32 | 66.56219 | -14.64104 | 35567 ft | 509 kts | 300° |
| 2026-04-07 11:32 | 66.60491 | -14.78281 | 35556 ft | 508 kts | 300° |
| 2026-04-07 11:33 | 66.64744 | -14.92484 | 35558 ft | 507 kts | 300° |
| 2026-04-07 11:33 | 66.68981 | -15.06725 | 35538 ft | 507 kts | 299° |
| 2026-04-07 11:34 | 66.73171 | -15.20899 | 35538 ft | 506 kts | 299° |
| 2026-04-07 11:34 | 66.77400 | -15.35162 | 35560 ft | 505 kts | 301° |
| 2026-04-07 11:35 | 66.81606 | -15.49385 | 35510 ft | 500 kts | 299° |
| 2026-04-07 11:35 | 66.85754 | -15.63498 | 35512 ft | 495 kts | 302° |
| 2026-04-07 11:36 | 66.89813 | -15.77560 | 35523 ft | 492 kts | 299° |
| 2026-04-07 11:36 | 66.93768 | -15.91801 | 35521 ft | 493 kts | 299° |
| 2026-04-07 11:37 | 66.97765 | -16.06033 | 35501 ft | 494 kts | 300° |
| 2026-04-07 11:37 | 67.01769 | -16.20216 | 35495 ft | 495 kts | 300° |
| 2026-04-07 11:38 | 67.05796 | -16.34531 | 35494 ft | 495 kts | 300° |
| 2026-04-07 11:38 | 67.09815 | -16.48927 | 35492 ft | 496 kts | 299° |
| 2026-04-07 11:39 | 67.13821 | -16.63382 | 35472 ft | 497 kts | 300° |
| 2026-04-07 11:39 | 67.17815 | -16.77897 | 35470 ft | 497 kts | 300° |
| 2026-04-07 11:40 | 67.21804 | -16.92483 | 35468 ft | 497 kts | 300° |
| 2026-04-07 11:40 | 67.25777 | -17.07109 | 35449 ft | 497 kts | 299° |
| 2026-04-07 11:41 | 67.29737 | -17.21787 | 35456 ft | 497 kts | 300° |
| 2026-04-07 11:41 | 67.33680 | -17.36498 | 35445 ft | 497 kts | 300° |
| 2026-04-07 11:42 | 67.37586 | -17.51168 | 35424 ft | 496 kts | 299° |
| 2026-04-07 11:42 | 67.41491 | -17.65934 | 35427 ft | 495 kts | 299° |
| 2026-04-07 11:43 | 67.45380 | -17.80740 | 35457 ft | 495 kts | 299° |
| 2026-04-07 11:43 | 67.49258 | -17.95606 | 35434 ft | 495 kts | 299° |
| 2026-04-07 11:44 | 67.53119 | -18.10507 | 35425 ft | 495 kts | 299° |
| 2026-04-07 11:44 | 67.56955 | -18.25409 | 35423 ft | 496 kts | 299° |
| 2026-04-07 11:45 | 67.60795 | -18.40432 | 35418 ft | 497 kts | 299° |
| 2026-04-07 11:45 | 67.64633 | -18.55552 | 35408 ft | 497 kts | 299° |
| 2026-04-07 11:46 | 67.68454 | -18.70706 | 35408 ft | 497 kts | 298° |
| 2026-04-07 11:46 | 67.72260 | -18.85905 | 35409 ft | 497 kts | 298° |
| 2026-04-07 11:47 | 67.76055 | -19.01172 | 35427 ft | 498 kts | 298° |
| 2026-04-07 11:47 | 67.79843 | -19.16515 | 35408 ft | 499 kts | 299° |
| 2026-04-07 11:48 | 67.83623 | -19.31930 | 35402 ft | 499 kts | 298° |
| 2026-04-07 11:48 | 67.87363 | -19.47288 | 35400 ft | 499 kts | 298° |
| 2026-04-07 11:49 | 67.91107 | -19.62775 | 35399 ft | 498 kts | 298° |
| 2026-04-07 11:49 | 67.94837 | -19.78305 | 35405 ft | 498 kts | 298° |
| 2026-04-07 11:50 | 67.98544 | -19.93895 | 35399 ft | 497 kts | 296° |
| 2026-04-07 11:50 | 68.01513 | -20.10356 | 35380 ft | 490 kts | 285° |
| 2026-04-07 11:51 | 68.03761 | -20.27529 | 35394 ft | 490 kts | 284° |
| 2026-04-07 11:51 | 68.05980 | -20.44715 | 35395 ft | 490 kts | 285° |
| 2026-04-07 11:52 | 68.08218 | -20.61929 | 35380 ft | 491 kts | 285° |
| 2026-04-07 11:52 | 68.10085 | -20.76281 | 35386 ft | 491 kts | 285° |
| 2026-04-07 11:53 | 68.12322 | -20.93591 | 35384 ft | 491 kts | 284° |
| 2026-04-07 11:53 | 68.14538 | -21.10921 | 35380 ft | 491 kts | 284° |
| 2026-04-07 11:54 | 68.16735 | -21.28287 | 35404 ft | 491 kts | 284° |
| 2026-04-07 11:54 | 68.18913 | -21.45696 | 35391 ft | 492 kts | 284° |
| 2026-04-07 11:55 | 68.21074 | -21.63159 | 35389 ft | 492 kts | 284° |
| 2026-04-07 11:55 | 68.23221 | -21.80664 | 35376 ft | 492 kts | 284° |
| 2026-04-07 11:56 | 68.25348 | -21.98184 | 35403 ft | 491 kts | 284° |
| 2026-04-07 11:56 | 68.27454 | -22.15725 | 35406 ft | 491 kts | 284° |
| 2026-04-07 11:57 | 68.29527 | -22.33182 | 35399 ft | 491 kts | 284° |
| 2026-04-07 11:57 | 68.31591 | -22.50752 | 35418 ft | 490 kts | 283° |
| 2026-04-07 11:58 | 68.33637 | -22.68344 | 35429 ft | 490 kts | 283° |
| 2026-04-07 11:58 | 68.35916 | -22.85654 | 35432 ft | 485 kts | 282° |
| 2026-04-07 11:59 | 68.37709 | -23.03269 | 35438 ft | 483 kts | 276° |
| 2026-04-07 11:59 | 68.39438 | -23.20970 | 35457 ft | 489 kts | 282° |
| 2026-04-07 12:00 | 68.41609 | -23.38542 | 35427 ft | 492 kts | 284° |
| 2026-04-07 12:00 | 68.43558 | -23.56225 | 35461 ft | 489 kts | 280° |
| 2026-04-07 12:01 | 68.45375 | -23.74169 | 35464 ft | 496 kts | 282° |
| 2026-04-07 12:01 | 68.47189 | -23.92156 | 35477 ft | 492 kts | 279° |
| 2026-04-07 12:02 | 68.49118 | -24.10156 | 35465 ft | 497 kts | 283° |
| 2026-04-07 12:02 | 68.51246 | -24.28117 | 35512 ft | 496 kts | 281° |
| 2026-04-07 12:03 | 68.53195 | -24.46223 | 35487 ft | 496 kts | 279° |
| 2026-04-07 12:03 | 68.54982 | -24.64474 | 35502 ft | 497 kts | 279° |
| 2026-04-07 12:04 | 68.56697 | -24.82659 | 35491 ft | 496 kts | 281° |
| 2026-04-07 12:04 | 68.58534 | -25.00805 | 35496 ft | 493 kts | 282° |
| 2026-04-07 12:05 | 68.60572 | -25.18708 | 35547 ft | 490 kts | 282° |
| 2026-04-07 12:05 | 68.62330 | -25.36636 | 35519 ft | 484 kts | 277° |
| 2026-04-07 12:06 | 68.63859 | -25.54686 | 35516 ft | 487 kts | 280° |
| 2026-04-07 12:06 | 68.65514 | -25.72766 | 35507 ft | 490 kts | 281° |
| 2026-04-07 12:07 | 68.67242 | -25.90876 | 35527 ft | 490 kts | 278° |
| 2026-04-07 12:07 | 68.68918 | -26.09092 | 35504 ft | 492 kts | 279° |
| 2026-04-07 12:08 | 68.70754 | -26.27152 | 35498 ft | 489 kts | 279° |
| 2026-04-07 12:08 | 68.72384 | -26.45145 | 35513 ft | 486 kts | 281° |
| 2026-04-07 12:09 | 68.73912 | -26.63200 | 35517 ft | 484 kts | 278° |
| 2026-04-07 12:09 | 68.75536 | -26.81186 | 35532 ft | 481 kts | 281° |
| 2026-04-07 12:10 | 68.76950 | -26.99215 | 35554 ft | 483 kts | 278° |
| 2026-04-07 12:10 | 68.78657 | -27.17251 | 35533 ft | 483 kts | 282° |
| 2026-04-07 12:11 | 68.80251 | -27.35308 | 35543 ft | 485 kts | 279° |
| 2026-04-07 12:11 | 68.81587 | -27.53611 | 35579 ft | 483 kts | 275° |
| 2026-04-07 12:12 | 68.83066 | -27.71847 | 35634 ft | 487 kts | 280° |
| 2026-04-07 12:12 | 68.84498 | -27.90055 | 35584 ft | 490 kts | 278° |
| 2026-04-07 12:13 | 68.86008 | -28.08510 | 35653 ft | 492 kts | 279° |
| 2026-04-07 12:13 | 68.87363 | -28.27035 | 35643 ft | 488 kts | 278° |
| 2026-04-07 12:14 | 68.88847 | -28.45393 | 35669 ft | 488 kts | 280° |
| 2026-04-07 12:14 | 68.90358 | -28.63758 | 35699 ft | 487 kts | 278° |
| 2026-04-07 12:15 | 68.91697 | -28.82178 | 35704 ft | 486 kts | 279° |
| 2026-04-07 12:15 | 68.93059 | -29.00611 | 35690 ft | 487 kts | 279° |
| 2026-04-07 12:16 | 68.94335 | -29.19110 | 35667 ft | 488 kts | 277° |
| 2026-04-07 12:16 | 68.95684 | -29.37491 | 35661 ft | 488 kts | 278° |
| 2026-04-07 12:17 | 68.97007 | -29.56009 | 35597 ft | 487 kts | 279° |
| 2026-04-07 12:17 | 68.98317 | -29.74444 | 35595 ft | 485 kts | 276° |
| 2026-04-07 12:18 | 68.99476 | -29.92970 | 35643 ft | 485 kts | 277° |
| 2026-04-07 12:18 | 69.01292 | -30.11138 | 35639 ft | 489 kts | 287° |
| 2026-04-07 12:19 | 69.03726 | -30.28803 | 35634 ft | 490 kts | 288° |
| 2026-04-07 12:19 | 69.06231 | -30.46462 | 35749 ft | 488 kts | 288° |
| 2026-04-07 12:20 | 69.08599 | -30.64276 | 35740 ft | 488 kts | 288° |
| 2026-04-07 12:20 | 69.10940 | -30.82060 | 35806 ft | 486 kts | 285° |
| 2026-04-07 12:21 | 69.13100 | -31.00034 | 35809 ft | 487 kts | 287° |
| 2026-04-07 12:21 | 69.15325 | -31.18000 | 35790 ft | 488 kts | 287° |
| 2026-04-07 12:22 | 69.17572 | -31.35966 | 35797 ft | 487 kts | 287° |
| 2026-04-07 12:22 | 69.19814 | -31.53980 | 35774 ft | 489 kts | 287° |
| 2026-04-07 12:23 | 69.22090 | -31.71997 | 35786 ft | 489 kts | 289° |
| 2026-04-07 12:23 | 69.24272 | -31.89926 | 35770 ft | 486 kts | 284° |
| 2026-04-07 12:24 | 69.26435 | -32.08053 | 35743 ft | 489 kts | 285° |
| 2026-04-07 12:24 | 69.28536 | -32.26346 | 35805 ft | 491 kts | 285° |
| 2026-04-07 12:25 | 69.30720 | -32.44706 | 35784 ft | 494 kts | 286° |
| 2026-04-07 12:25 | 69.32912 | -32.63146 | 35782 ft | 495 kts | 287° |
| 2026-04-07 12:26 | 69.35045 | -32.81686 | 35816 ft | 495 kts | 285° |
| 2026-04-07 12:26 | 69.37203 | -33.00049 | 35809 ft | 494 kts | 284° |
| 2026-04-07 12:27 | 69.39241 | -33.18630 | 35782 ft | 494 kts | 283° |
| 2026-04-07 12:27 | 69.41229 | -33.37328 | 35818 ft | 495 kts | 285° |
| 2026-04-07 12:28 | 69.43334 | -33.55946 | 35817 ft | 494 kts | 284° |
| 2026-04-07 12:29 | 69.46273 | -33.83940 | 35833 ft | 490 kts | 284° |
| 2026-04-07 12:29 | 69.48266 | -34.02511 | 35842 ft | 489 kts | 284° |
| 2026-04-07 12:30 | 69.50208 | -34.21054 | 35863 ft | 488 kts | 282° |
| 2026-04-07 12:30 | 69.52136 | -34.39550 | 35861 ft | 487 kts | 283° |
| 2026-04-07 12:31 | 69.54067 | -34.58135 | 35851 ft | 487 kts | 283° |
| 2026-04-07 12:31 | 69.56021 | -34.76638 | 35874 ft | 485 kts | 283° |
| 2026-04-07 12:32 | 69.57942 | -34.95165 | 35854 ft | 484 kts | 283° |
| 2026-04-07 12:32 | 69.59811 | -35.13540 | 35862 ft | 483 kts | 282° |
| 2026-04-07 12:33 | 69.61553 | -35.32175 | 35871 ft | 485 kts | 281° |
| 2026-04-07 12:33 | 69.63229 | -35.50951 | 35872 ft | 485 kts | 282° |
| 2026-04-07 12:34 | 69.65054 | -35.69612 | 35860 ft | 485 kts | 283° |
| 2026-04-07 12:34 | 69.66825 | -35.88370 | 35856 ft | 486 kts | 281° |
| 2026-04-07 12:35 | 69.68478 | -36.07264 | 35867 ft | 488 kts | 282° |
| 2026-04-07 12:35 | 69.70317 | -36.25899 | 35865 ft | 487 kts | 282° |
| 2026-04-07 12:36 | 69.72070 | -36.44766 | 35860 ft | 488 kts | 283° |
| 2026-04-07 12:36 | 69.73709 | -36.63757 | 35863 ft | 488 kts | 281° |
| 2026-04-07 12:37 | 69.75394 | -36.82730 | 35864 ft | 488 kts | 282° |
| 2026-04-07 12:37 | 69.77093 | -37.01710 | 35848 ft | 486 kts | 280° |
| 2026-04-07 12:38 | 69.78649 | -37.20717 | 35875 ft | 485 kts | 281° |
| 2026-04-07 12:38 | 69.80281 | -37.39606 | 35863 ft | 483 kts | 280° |
| 2026-04-07 12:39 | 69.81821 | -37.58530 | 35855 ft | 483 kts | 281° |
| 2026-04-07 12:39 | 69.83325 | -37.77475 | 35857 ft | 482 kts | 279° |
| 2026-04-07 12:40 | 69.84863 | -37.96335 | 35854 ft | 483 kts | 280° |
| 2026-04-07 12:40 | 69.86479 | -38.15247 | 35855 ft | 482 kts | 281° |
| 2026-04-07 12:41 | 69.87749 | -38.31012 | 35836 ft | 483 kts | 281° |
| 2026-04-07 12:41 | 69.89200 | -38.50013 | 35849 ft | 481 kts | 278° |
| 2026-04-07 12:42 | 69.90513 | -38.69090 | 35841 ft | 479 kts | 278° |
| 2026-04-07 12:42 | 69.91921 | -38.88012 | 35831 ft | 479 kts | 281° |
| 2026-04-07 12:43 | 69.93418 | -39.06900 | 35829 ft | 479 kts | 279° |
| 2026-04-07 12:43 | 69.94732 | -39.25866 | 35831 ft | 478 kts | 278° |
| 2026-04-07 12:44 | 69.96128 | -39.44792 | 35840 ft | 476 kts | 277° |
| 2026-04-07 12:44 | 69.97402 | -39.63837 | 35833 ft | 481 kts | 280° |
| 2026-04-07 12:45 | 69.98893 | -39.82946 | 35849 ft | 483 kts | 279° |
| 2026-04-07 12:45 | 70.00101 | -40.02275 | 35818 ft | 483 kts | 274° |
| 2026-04-07 12:46 | 70.00609 | -40.21692 | 35847 ft | 478 kts | 271° |
| 2026-04-07 12:46 | 70.01180 | -40.40942 | 35840 ft | 479 kts | 271° |
| 2026-04-07 12:47 | 70.01678 | -40.60464 | 35839 ft | 478 kts | 271° |
| 2026-04-07 12:47 | 70.02057 | -40.79810 | 35824 ft | 475 kts | 271° |
| 2026-04-07 12:48 | 70.02461 | -40.98988 | 35836 ft | 476 kts | 271° |
| 2026-04-07 12:48 | 70.02947 | -41.18326 | 35828 ft | 476 kts | 270° |
| 2026-04-07 12:49 | 70.03286 | -41.37644 | 35836 ft | 475 kts | 269° |
| 2026-04-07 12:49 | 70.03586 | -41.56956 | 35834 ft | 475 kts | 271° |
| 2026-04-07 12:50 | 70.03998 | -41.76305 | 35836 ft | 476 kts | 270° |
| 2026-04-07 12:50 | 70.04357 | -41.95698 | 35801 ft | 476 kts | 270° |
| 2026-04-07 12:51 | 70.04569 | -42.14928 | 35820 ft | 474 kts | 272° |
| 2026-04-07 12:51 | 70.04994 | -42.34034 | 35819 ft | 473 kts | 269° |
| 2026-04-07 12:52 | 70.05272 | -42.53314 | 35798 ft | 474 kts | 270° |
| 2026-04-07 12:52 | 70.05540 | -42.72653 | 35818 ft | 476 kts | 270° |
| 2026-04-07 12:53 | 70.05740 | -42.92018 | 35803 ft | 477 kts | 269° |
| 2026-04-07 12:53 | 70.06010 | -43.11436 | 35778 ft | 476 kts | 269° |
| 2026-04-07 12:54 | 70.06165 | -43.30806 | 35795 ft | 475 kts | 268° |
| 2026-04-07 12:54 | 70.06366 | -43.50144 | 35797 ft | 474 kts | 269° |
| 2026-04-07 12:55 | 70.06470 | -43.69455 | 35786 ft | 473 kts | 269° |
| 2026-04-07 12:55 | 70.06676 | -43.88565 | 35789 ft | 472 kts | 268° |
| 2026-04-07 12:56 | 70.06837 | -44.07784 | 35774 ft | 471 kts | 269° |
| 2026-04-07 12:56 | 70.06829 | -44.26948 | 35790 ft | 470 kts | 267° |
| 2026-04-07 12:57 | 70.06856 | -44.46080 | 35770 ft | 469 kts | 267° |
| 2026-04-07 12:57 | 70.06862 | -44.65215 | 35773 ft | 469 kts | 267° |
| 2026-04-07 12:58 | 70.06979 | -44.84273 | 35783 ft | 467 kts | 268° |
| 2026-04-07 12:58 | 70.07101 | -45.03282 | 35778 ft | 465 kts | 267° |
| 2026-04-07 12:59 | 70.07075 | -45.22172 | 35776 ft | 467 kts | 266° |
| 2026-04-07 12:59 | 70.06915 | -45.41184 | 35771 ft | 467 kts | 267° |
| 2026-04-07 13:00 | 70.06920 | -45.60248 | 35773 ft | 469 kts | 266° |
| 2026-04-07 13:00 | 70.06935 | -45.79309 | 35797 ft | 466 kts | 266° |
| 2026-04-07 13:01 | 70.06772 | -45.98368 | 35783 ft | 469 kts | 265° |
| 2026-04-07 13:01 | 70.06577 | -46.17525 | 35781 ft | 472 kts | 265° |
| 2026-04-07 13:02 | 70.06472 | -46.36806 | 35788 ft | 474 kts | 266° |
| 2026-04-07 13:02 | 70.06405 | -46.56152 | 35769 ft | 474 kts | 265° |
| 2026-04-07 13:03 | 70.06208 | -46.75423 | 35775 ft | 473 kts | 265° |
| 2026-04-07 13:03 | 70.05978 | -46.94675 | 35779 ft | 471 kts | 264° |
| 2026-04-07 13:04 | 70.05706 | -47.13701 | 35765 ft | 470 kts | 265° |
| 2026-04-07 13:04 | 70.05439 | -47.32837 | 35782 ft | 470 kts | 264° |
| 2026-04-07 13:05 | 70.05199 | -47.51909 | 35785 ft | 467 kts | 264° |
| 2026-04-07 13:05 | 70.05004 | -47.70920 | 35754 ft | 466 kts | 263° |
| 2026-04-07 13:06 | 70.04618 | -47.89894 | 35784 ft | 465 kts | 263° |
| 2026-04-07 13:06 | 70.04330 | -48.08797 | 35773 ft | 465 kts | 263° |
| 2026-04-07 13:07 | 70.03998 | -48.27726 | 35770 ft | 466 kts | 264° |
| 2026-04-07 13:07 | 70.03598 | -48.46657 | 35780 ft | 466 kts | 263° |
| 2026-04-07 13:08 | 70.03292 | -48.65565 | 35790 ft | 468 kts | 263° |
| 2026-04-07 13:08 | 70.02927 | -48.84719 | 35772 ft | 468 kts | 263° |
| 2026-04-07 13:09 | 70.02509 | -49.03552 | 35769 ft | 467 kts | 261° |
| 2026-04-07 13:09 | 70.01948 | -49.22470 | 35739 ft | 468 kts | 262° |
| 2026-04-07 13:10 | 70.01501 | -49.41456 | 35742 ft | 467 kts | 262° |
| 2026-04-07 13:10 | 70.01113 | -49.60429 | 35736 ft | 467 kts | 262° |
| 2026-04-07 13:11 | 70.00547 | -49.79354 | 35696 ft | 467 kts | 261° |
| 2026-04-07 13:11 | 70.00077 | -49.98310 | 35679 ft | 469 kts | 264° |
| 2026-04-07 13:12 | 70.00288 | -50.17268 | 35742 ft | 469 kts | 269° |
| 2026-04-07 13:12 | 70.00782 | -50.36368 | 35667 ft | 473 kts | 272° |
| 2026-04-07 13:13 | 70.01407 | -50.55507 | 35673 ft | 473 kts | 271° |
| 2026-04-07 13:13 | 70.01922 | -50.74706 | 35673 ft | 473 kts | 270° |
| 2026-04-07 13:14 | 70.02378 | -50.93937 | 35669 ft | 474 kts | 270° |
| 2026-04-07 13:14 | 70.02804 | -51.13192 | 35666 ft | 474 kts | 270° |
| 2026-04-07 13:15 | 70.03209 | -51.32436 | 35666 ft | 474 kts | 270° |
| 2026-04-07 13:15 | 70.03595 | -51.51689 | 35675 ft | 474 kts | 269° |
| 2026-04-07 13:16 | 70.03961 | -51.70951 | 35667 ft | 474 kts | 269° |
| 2026-04-07 13:16 | 70.04303 | -51.90084 | 35657 ft | 473 kts | 269° |
| 2026-04-07 13:17 | 70.04627 | -52.09305 | 35652 ft | 472 kts | 269° |
| 2026-04-07 13:17 | 70.04929 | -52.28484 | 35663 ft | 472 kts | 269° |
| 2026-04-07 13:18 | 70.05211 | -52.47660 | 35660 ft | 471 kts | 268° |
| 2026-04-07 13:18 | 70.05472 | -52.66829 | 35664 ft | 470 kts | 268° |
| 2026-04-07 13:19 | 70.05711 | -52.85953 | 35671 ft | 470 kts | 268° |
| 2026-04-07 13:19 | 70.05930 | -53.05102 | 35667 ft | 470 kts | 268° |
| 2026-04-07 13:20 | 70.06128 | -53.24139 | 35674 ft | 470 kts | 268° |
| 2026-04-07 13:20 | 70.06306 | -53.43282 | 35662 ft | 470 kts | 268° |
| 2026-04-07 13:21 | 70.06463 | -53.62456 | 35661 ft | 471 kts | 267° |
| 2026-04-07 13:21 | 70.06601 | -53.81638 | 35674 ft | 470 kts | 267° |
| 2026-04-07 13:22 | 70.06720 | -54.00795 | 35729 ft | 471 kts | 267° |
| 2026-04-07 13:22 | 70.06815 | -54.20011 | 35691 ft | 471 kts | 266° |
| 2026-04-07 13:23 | 70.06890 | -54.39216 | 35690 ft | 470 kts | 266° |
| 2026-04-07 13:23 | 70.06945 | -54.58364 | 35695 ft | 469 kts | 266° |
| 2026-04-07 13:24 | 70.06976 | -54.77484 | 35693 ft | 469 kts | 266° |
| 2026-04-07 13:24 | 70.06993 | -54.96562 | 35688 ft | 468 kts | 266° |
| 2026-04-07 13:25 | 70.06989 | -55.15658 | 35708 ft | 468 kts | 266° |
| 2026-04-07 13:25 | 70.06962 | -55.34611 | 35711 ft | 468 kts | 265° |
| 2026-04-07 13:26 | 70.06914 | -55.53679 | 35725 ft | 468 kts | 265° |
| 2026-04-07 13:26 | 70.06846 | -55.72729 | 35727 ft | 468 kts | 265° |
| 2026-04-07 13:27 | 70.06758 | -55.91833 | 35736 ft | 468 kts | 265° |
| 2026-04-07 13:27 | 70.06670 | -56.07713 | 35728 ft | 469 kts | 265° |
| 2026-04-07 13:28 | 70.06545 | -56.26822 | 35731 ft | 469 kts | 265° |
| 2026-04-07 13:28 | 70.06399 | -56.45932 | 35735 ft | 469 kts | 264° |
| 2026-04-07 13:29 | 70.06233 | -56.65056 | 35745 ft | 470 kts | 264° |
| 2026-04-07 13:29 | 70.06046 | -56.84185 | 35745 ft | 469 kts | 264° |
| 2026-04-07 13:30 | 70.05839 | -57.03280 | 35746 ft | 469 kts | 264° |
| 2026-04-07 13:30 | 70.05612 | -57.22346 | 35749 ft | 468 kts | 264° |
| 2026-04-07 13:31 | 70.05365 | -57.41394 | 35760 ft | 468 kts | 263° |
| 2026-04-07 13:31 | 70.05098 | -57.60424 | 35760 ft | 468 kts | 263° |
| 2026-04-07 13:32 | 70.04812 | -57.79345 | 35774 ft | 468 kts | 263° |
| 2026-04-07 13:32 | 70.04504 | -57.98396 | 35772 ft | 469 kts | 263° |
| 2026-04-07 13:33 | 70.04175 | -58.17455 | 35781 ft | 469 kts | 263° |
| 2026-04-07 13:33 | 70.03644 | -58.46045 | 35786 ft | 469 kts | 262° |
| 2026-04-07 13:34 | 70.03264 | -58.65120 | 35795 ft | 468 kts | 262° |
| 2026-04-07 13:34 | 70.02868 | -58.83994 | 35794 ft | 468 kts | 262° |
| 2026-04-07 13:35 | 70.02448 | -59.03043 | 35792 ft | 468 kts | 262° |
| 2026-04-07 13:35 | 70.02008 | -59.22071 | 35805 ft | 469 kts | 262° |
| 2026-04-07 13:36 | 70.01548 | -59.41082 | 35806 ft | 469 kts | 261° |
| 2026-04-07 13:36 | 70.01069 | -59.60080 | 35813 ft | 469 kts | 261° |
| 2026-04-07 13:37 | 70.00570 | -59.79077 | 35814 ft | 469 kts | 261° |
| 2026-04-07 13:37 | 70.00056 | -59.97956 | 35816 ft | 469 kts | 261° |
| 2026-04-07 13:38 | 69.99642 | -60.16976 | 35824 ft | 470 kts | 263° |
| 2026-04-07 13:38 | 69.99355 | -60.36045 | 35825 ft | 470 kts | 263° |
| 2026-04-07 13:39 | 69.99044 | -60.55144 | 35829 ft | 470 kts | 262° |
| 2026-04-07 13:39 | 69.98690 | -60.74215 | 35832 ft | 470 kts | 262° |
| 2026-04-07 13:40 | 69.98306 | -60.93264 | 35834 ft | 470 kts | 262° |
| 2026-04-07 13:40 | 69.97899 | -61.12341 | 35842 ft | 470 kts | 262° |
| 2026-04-07 13:41 | 69.97477 | -61.31275 | 35839 ft | 470 kts | 262° |
| 2026-04-07 13:41 | 69.97033 | -61.50266 | 35847 ft | 470 kts | 261° |
| 2026-04-07 13:42 | 69.96568 | -61.69288 | 35865 ft | 471 kts | 261° |
| 2026-04-07 13:42 | 69.96082 | -61.88331 | 35851 ft | 471 kts | 261° |
| 2026-04-07 13:43 | 69.95576 | -62.07384 | 35848 ft | 471 kts | 261° |
| 2026-04-07 13:43 | 69.95050 | -62.26395 | 35840 ft | 470 kts | 261° |
| 2026-04-07 13:44 | 69.94504 | -62.45383 | 35855 ft | 470 kts | 261° |
| 2026-04-07 13:44 | 69.93941 | -62.64269 | 35860 ft | 470 kts | 260° |
| 2026-04-07 13:45 | 69.93357 | -62.83205 | 35859 ft | 470 kts | 260° |
| 2026-04-07 13:45 | 69.92754 | -63.02175 | 35863 ft | 470 kts | 260° |
| 2026-04-07 13:46 | 69.92136 | -63.21100 | 35870 ft | 470 kts | 261° |
| 2026-04-07 13:46 | 69.91925 | -63.40188 | 35882 ft | 472 kts | 264° |
| 2026-04-07 13:47 | 69.91807 | -63.59315 | 35874 ft | 473 kts | 264° |
| 2026-04-07 13:47 | 69.91663 | -63.78475 | 35871 ft | 473 kts | 264° |
| 2026-04-07 13:48 | 69.91487 | -63.97602 | 35869 ft | 473 kts | 263° |
| 2026-04-07 13:48 | 69.91286 | -64.16605 | 35881 ft | 473 kts | 263° |
| 2026-04-07 13:49 | 69.91062 | -64.35744 | 35875 ft | 473 kts | 263° |
| 2026-04-07 13:49 | 69.90818 | -64.54887 | 35883 ft | 473 kts | 263° |
| 2026-04-07 13:50 | 69.90554 | -64.73995 | 35873 ft | 472 kts | 263° |
| 2026-04-07 13:50 | 69.90270 | -64.93086 | 35874 ft | 472 kts | 263° |
| 2026-04-07 13:51 | 69.89965 | -65.12155 | 35881 ft | 472 kts | 263° |
| 2026-04-07 13:51 | 69.89642 | -65.31092 | 35894 ft | 473 kts | 263° |
| 2026-04-07 13:52 | 69.89296 | -65.50194 | 35887 ft | 473 kts | 262° |
| 2026-04-07 13:52 | 69.88930 | -65.69269 | 35895 ft | 473 kts | 262° |
| 2026-04-07 13:53 | 69.88542 | -65.88355 | 35884 ft | 473 kts | 262° |
| 2026-04-07 13:53 | 69.88135 | -66.07441 | 35890 ft | 473 kts | 262° |
| 2026-04-07 13:54 | 69.87706 | -66.26540 | 35890 ft | 473 kts | 262° |
| 2026-04-07 13:54 | 69.87257 | -66.45610 | 35911 ft | 473 kts | 262° |
| 2026-04-07 13:55 | 69.86785 | -66.64743 | 36069 ft | 477 kts | 261° |
| 2026-04-07 13:55 | 69.86541 | -66.74329 | 36333 ft | 476 kts | 261° |
| 2026-04-07 13:55 | 69.86293 | -66.83888 | 36599 ft | 474 kts | 261° |
| 2026-04-07 13:56 | 69.86040 | -66.93427 | 36844 ft | 474 kts | 261° |
| 2026-04-07 13:56 | 69.85782 | -67.02979 | 37076 ft | 474 kts | 261° |
| 2026-04-07 13:56 | 69.85522 | -67.12383 | 37270 ft | 474 kts | 261° |
| 2026-04-07 13:56 | 69.85253 | -67.21919 | 37477 ft | 474 kts | 261° |
| 2026-04-07 13:57 | 69.84979 | -67.31450 | 37699 ft | 474 kts | 261° |
| 2026-04-07 13:57 | 69.84700 | -67.40975 | 37812 ft | 475 kts | 261° |
| 2026-04-07 13:57 | 69.84125 | -67.60075 | 37892 ft | 476 kts | 261° |
| 2026-04-07 13:58 | 69.83531 | -67.79142 | 37893 ft | 475 kts | 260° |
| 2026-04-07 13:58 | 69.82917 | -67.98184 | 37888 ft | 474 kts | 260° |
| 2026-04-07 13:59 | 69.82283 | -68.17207 | 37887 ft | 474 kts | 260° |
| 2026-04-07 13:59 | 69.81628 | -68.36206 | 37882 ft | 473 kts | 260° |
| 2026-04-07 14:00 | 69.80953 | -68.55182 | 37882 ft | 473 kts | 259° |
| 2026-04-07 14:00 | 69.80264 | -68.73991 | 37913 ft | 472 kts | 259° |
| 2026-04-07 14:01 | 69.79550 | -68.92904 | 37886 ft | 473 kts | 259° |
| 2026-04-07 14:01 | 69.78814 | -69.11830 | 37871 ft | 473 kts | 259° |
| 2026-04-07 14:02 | 69.78062 | -69.30691 | 37856 ft | 473 kts | 259° |
| 2026-04-07 14:02 | 69.77285 | -69.49632 | 37827 ft | 473 kts | 259° |
| 2026-04-07 14:03 | 69.76489 | -69.68517 | 37818 ft | 474 kts | 259° |
| 2026-04-07 14:03 | 69.75679 | -69.87259 | 37833 ft | 473 kts | 258° |
| 2026-04-07 14:04 | 69.74841 | -70.06136 | 37833 ft | 474 kts | 259° |
| 2026-04-07 14:04 | 69.73983 | -70.25035 | 37826 ft | 475 kts | 258° |
| 2026-04-07 14:05 | 69.73104 | -70.43942 | 37812 ft | 475 kts | 258° |
| 2026-04-07 14:05 | 69.72203 | -70.62841 | 37824 ft | 475 kts | 258° |
| 2026-04-07 14:06 | 69.71289 | -70.81576 | 37820 ft | 475 kts | 258° |
| 2026-04-07 14:06 | 69.70350 | -71.00415 | 37820 ft | 475 kts | 258° |
| 2026-04-07 14:07 | 69.69391 | -71.19226 | 37832 ft | 475 kts | 258° |
| 2026-04-07 14:07 | 69.68409 | -71.38069 | 37836 ft | 476 kts | 258° |
| 2026-04-07 14:08 | 69.67407 | -71.56893 | 37835 ft | 476 kts | 257° |
| 2026-04-07 14:08 | 69.66384 | -71.75721 | 37829 ft | 476 kts | 257° |
| 2026-04-07 14:09 | 69.65341 | -71.94519 | 37824 ft | 476 kts | 257° |
| 2026-04-07 14:09 | 69.64284 | -72.13193 | 37821 ft | 476 kts | 257° |
| 2026-04-07 14:10 | 69.63199 | -72.31975 | 37830 ft | 477 kts | 257° |
| 2026-04-07 14:10 | 69.62094 | -72.50771 | 37812 ft | 478 kts | 257° |
| 2026-04-07 14:11 | 69.60968 | -72.69557 | 37796 ft | 478 kts | 257° |
| 2026-04-07 14:11 | 69.59822 | -72.88313 | 37801 ft | 477 kts | 257° |
| 2026-04-07 14:12 | 69.58656 | -73.07042 | 37800 ft | 477 kts | 256° |
| 2026-04-07 14:12 | 69.57471 | -73.25734 | 37803 ft | 477 kts | 256° |
| 2026-04-07 14:13 | 69.56265 | -73.44422 | 37812 ft | 477 kts | 256° |
| 2026-04-07 14:13 | 69.55041 | -73.63065 | 37810 ft | 477 kts | 256° |
| 2026-04-07 14:14 | 69.53794 | -73.81737 | 37804 ft | 478 kts | 256° |
| 2026-04-07 14:14 | 69.52743 | -73.97226 | 37794 ft | 477 kts | 256° |
| 2026-04-07 14:15 | 69.51249 | -74.18883 | 37796 ft | 477 kts | 256° |
| 2026-04-07 14:15 | 69.50157 | -74.34449 | 37813 ft | 477 kts | 256° |
| 2026-04-07 14:16 | 69.48842 | -74.52911 | 37822 ft | 478 kts | 256° |
| 2026-04-07 14:16 | 69.47499 | -74.71467 | 37813 ft | 478 kts | 256° |
| 2026-04-07 14:17 | 69.46135 | -74.90022 | 37809 ft | 479 kts | 256° |
| 2026-04-07 14:17 | 69.44750 | -75.08580 | 37811 ft | 479 kts | 255° |
| 2026-04-07 14:18 | 69.43346 | -75.27100 | 37821 ft | 479 kts | 255° |
| 2026-04-07 14:18 | 69.41922 | -75.45595 | 37822 ft | 479 kts | 255° |
| 2026-04-07 14:19 | 69.40476 | -75.64104 | 37826 ft | 479 kts | 255° |
| 2026-04-07 14:19 | 69.39009 | -75.82578 | 37819 ft | 480 kts | 255° |
| 2026-04-07 14:20 | 69.37525 | -76.01033 | 37823 ft | 480 kts | 255° |
| 2026-04-07 14:20 | 69.36020 | -76.19459 | 37821 ft | 480 kts | 255° |
| 2026-04-07 14:21 | 69.34503 | -76.37770 | 37817 ft | 480 kts | 255° |
| 2026-04-07 14:21 | 69.32960 | -76.56136 | 37836 ft | 480 kts | 254° |
| 2026-04-07 14:22 | 69.31394 | -76.74520 | 37835 ft | 480 kts | 255° |
| 2026-04-07 14:22 | 69.29823 | -76.92871 | 37826 ft | 480 kts | 255° |
| 2026-04-07 14:23 | 69.28317 | -77.11274 | 37833 ft | 480 kts | 254° |
| 2026-04-07 14:23 | 69.26632 | -77.29495 | 37830 ft | 480 kts | 253° |
| 2026-04-07 14:24 | 69.24941 | -77.47733 | 37838 ft | 481 kts | 253° |
| 2026-04-07 14:24 | 69.23268 | -77.65987 | 37836 ft | 481 kts | 254° |
| 2026-04-07 14:25 | 69.21596 | -77.84148 | 37849 ft | 481 kts | 254° |
| 2026-04-07 14:25 | 69.19937 | -78.02406 | 37838 ft | 481 kts | 255° |
| 2026-04-07 14:26 | 69.18203 | -78.20577 | 37842 ft | 481 kts | 253° |
| 2026-04-07 14:26 | 69.16422 | -78.38714 | 37847 ft | 481 kts | 253° |
| 2026-04-07 14:27 | 69.14668 | -78.56762 | 37851 ft | 482 kts | 253° |
| 2026-04-07 14:27 | 69.12891 | -78.74911 | 37848 ft | 483 kts | 253° |
| 2026-04-07 14:28 | 69.11091 | -78.93028 | 37847 ft | 483 kts | 253° |
| 2026-04-07 14:28 | 69.09265 | -79.11153 | 37846 ft | 483 kts | 253° |
| 2026-04-07 14:29 | 69.07420 | -79.29241 | 37852 ft | 483 kts | 253° |
| 2026-04-07 14:29 | 69.05558 | -79.47294 | 37852 ft | 483 kts | 252° |
| 2026-04-07 14:30 | 69.03677 | -79.65318 | 37849 ft | 483 kts | 252° |
| 2026-04-07 14:30 | 69.01782 | -79.83305 | 37853 ft | 483 kts | 252° |
| 2026-04-07 14:31 | 68.99791 | -80.01179 | 37854 ft | 481 kts | 248° |
| 2026-04-07 14:31 | 68.97067 | -80.18206 | 37835 ft | 481 kts | 243° |
| 2026-04-07 14:32 | 68.94157 | -80.34847 | 37854 ft | 481 kts | 243° |
| 2026-04-07 14:32 | 68.91217 | -80.51674 | 37854 ft | 481 kts | 244° |
| 2026-04-07 14:33 | 68.88372 | -80.68357 | 37854 ft | 481 kts | 243° |
| 2026-04-07 14:33 | 68.85431 | -80.85071 | 37849 ft | 482 kts | 243° |
| 2026-04-07 14:34 | 68.82482 | -81.01745 | 37844 ft | 483 kts | 243° |
| 2026-04-07 14:34 | 68.79526 | -81.18416 | 37840 ft | 483 kts | 243° |
| 2026-04-07 14:35 | 68.76631 | -81.35145 | 37831 ft | 480 kts | 245° |
| 2026-04-07 14:35 | 68.73708 | -81.51713 | 37840 ft | 481 kts | 243° |
| 2026-04-07 14:36 | 68.70623 | -81.68064 | 37851 ft | 483 kts | 240° |
| 2026-04-07 14:36 | 68.67524 | -81.84404 | 37871 ft | 486 kts | 243° |
| 2026-04-07 14:37 | 68.64503 | -82.01057 | 37874 ft | 487 kts | 243° |
| 2026-04-07 14:37 | 68.61444 | -82.17680 | 37871 ft | 488 kts | 243° |
| 2026-04-07 14:38 | 68.58367 | -82.34222 | 37866 ft | 488 kts | 243° |
| 2026-04-07 14:38 | 68.55260 | -82.50691 | 37869 ft | 487 kts | 242° |
| 2026-04-07 14:39 | 68.50566 | -82.75268 | 37870 ft | 485 kts | 242° |
| 2026-04-07 14:40 | 68.47432 | -82.91545 | 37871 ft | 485 kts | 242° |
| 2026-04-07 14:40 | 68.44286 | -83.07758 | 37867 ft | 484 kts | 242° |
| 2026-04-07 14:41 | 68.41129 | -83.23908 | 37865 ft | 483 kts | 242° |
| 2026-04-07 14:41 | 68.38019 | -83.39922 | 37873 ft | 482 kts | 242° |
| 2026-04-07 14:42 | 68.34837 | -83.55927 | 37872 ft | 481 kts | 242° |
| 2026-04-07 14:42 | 68.31623 | -83.71816 | 37873 ft | 481 kts | 242° |
| 2026-04-07 14:43 | 68.28410 | -83.87691 | 37878 ft | 481 kts | 242° |
| 2026-04-07 14:43 | 68.25196 | -84.03525 | 37878 ft | 482 kts | 242° |
| 2026-04-07 14:44 | 68.21958 | -84.19363 | 37875 ft | 482 kts | 241° |
| 2026-04-07 14:44 | 68.18733 | -84.35174 | 37843 ft | 482 kts | 242° |
| 2026-04-07 14:45 | 68.15579 | -84.50977 | 37878 ft | 479 kts | 242° |
| 2026-04-07 14:45 | 68.12281 | -84.66411 | 37882 ft | 480 kts | 240° |
| 2026-04-07 14:46 | 68.08906 | -84.81887 | 37885 ft | 482 kts | 240° |
| 2026-04-07 14:46 | 68.05558 | -84.97454 | 37878 ft | 483 kts | 241° |
| 2026-04-07 14:47 | 68.02249 | -85.13100 | 37883 ft | 484 kts | 241° |
| 2026-04-07 14:47 | 67.98900 | -85.28758 | 37867 ft | 485 kts | 241° |
| 2026-04-07 14:48 | 67.95545 | -85.44226 | 37876 ft | 485 kts | 240° |
| 2026-04-07 14:48 | 67.92074 | -85.59622 | 37890 ft | 485 kts | 241° |
| 2026-04-07 14:49 | 67.88699 | -85.75183 | 37885 ft | 485 kts | 241° |
| 2026-04-07 14:49 | 67.85304 | -85.90715 | 37901 ft | 485 kts | 240° |
| 2026-04-07 14:50 | 67.81874 | -86.06132 | 37896 ft | 486 kts | 240° |
| 2026-04-07 14:50 | 67.78443 | -86.21381 | 37901 ft | 485 kts | 240° |
| 2026-04-07 14:51 | 67.74975 | -86.36675 | 37903 ft | 485 kts | 240° |
| 2026-04-07 14:51 | 67.71492 | -86.51933 | 37913 ft | 485 kts | 240° |
| 2026-04-07 14:52 | 67.67999 | -86.67133 | 37929 ft | 485 kts | 240° |
| 2026-04-07 14:52 | 67.64493 | -86.82286 | 37926 ft | 485 kts | 240° |
| 2026-04-07 14:53 | 67.60970 | -86.97408 | 37923 ft | 485 kts | 240° |
| 2026-04-07 14:53 | 67.57429 | -87.12502 | 37929 ft | 485 kts | 240° |
| 2026-04-07 14:54 | 67.53877 | -87.27537 | 37915 ft | 485 kts | 240° |
| 2026-04-07 14:54 | 67.50313 | -87.42516 | 37933 ft | 485 kts | 240° |
| 2026-04-07 14:55 | 67.46755 | -87.57370 | 37942 ft | 486 kts | 240° |
| 2026-04-07 14:55 | 67.43159 | -87.72277 | 37941 ft | 486 kts | 239° |
| 2026-04-07 14:56 | 67.39543 | -87.87169 | 37948 ft | 487 kts | 239° |
| 2026-04-07 14:56 | 67.35903 | -88.02058 | 37947 ft | 487 kts | 239° |
| 2026-04-07 14:57 | 67.32260 | -88.16857 | 37951 ft | 487 kts | 239° |
| 2026-04-07 14:57 | 67.28594 | -88.31649 | 37951 ft | 487 kts | 239° |
| 2026-04-07 14:58 | 67.24943 | -88.46281 | 37959 ft | 488 kts | 239° |
| 2026-04-07 14:58 | 67.21244 | -88.61007 | 37965 ft | 488 kts | 239° |
| 2026-04-07 14:59 | 67.17537 | -88.75665 | 37967 ft | 488 kts | 239° |
| 2026-04-07 14:59 | 67.13805 | -88.90324 | 37965 ft | 489 kts | 239° |
| 2026-04-07 15:00 | 67.10067 | -89.04910 | 37974 ft | 489 kts | 239° |
| 2026-04-07 15:00 | 67.06948 | -89.17005 | 37979 ft | 489 kts | 239° |
| 2026-04-07 15:01 | 67.03186 | -89.31508 | 37988 ft | 489 kts | 239° |
| 2026-04-07 15:01 | 66.99412 | -89.45960 | 37989 ft | 489 kts | 238° |
| 2026-04-07 15:02 | 66.95620 | -89.60390 | 37989 ft | 489 kts | 238° |
| 2026-04-07 15:02 | 66.91836 | -89.74689 | 37990 ft | 489 kts | 238° |
| 2026-04-07 15:03 | 66.88020 | -89.89020 | 37984 ft | 489 kts | 238° |
| 2026-04-07 15:03 | 66.84187 | -90.03320 | 37985 ft | 489 kts | 238° |
| 2026-04-07 15:04 | 66.80351 | -90.17535 | 37998 ft | 488 kts | 238° |
| 2026-04-07 15:04 | 66.76496 | -90.31734 | 37997 ft | 489 kts | 238° |
| 2026-04-07 15:05 | 66.72626 | -90.45896 | 38002 ft | 489 kts | 238° |
| 2026-04-07 15:05 | 66.68767 | -90.59927 | 38008 ft | 489 kts | 238° |
| 2026-04-07 15:06 | 66.64871 | -90.74004 | 38020 ft | 489 kts | 238° |
| 2026-04-07 15:06 | 66.60964 | -90.88033 | 38017 ft | 489 kts | 238° |
| 2026-04-07 15:07 | 66.57045 | -91.02010 | 38011 ft | 488 kts | 238° |
| 2026-04-07 15:07 | 66.53143 | -91.15842 | 38031 ft | 488 kts | 238° |
| 2026-04-07 15:08 | 66.49213 | -91.29686 | 38035 ft | 487 kts | 238° |
| 2026-04-07 15:08 | 66.45267 | -91.43498 | 38038 ft | 487 kts | 238° |
| 2026-04-07 15:09 | 66.41312 | -91.57258 | 38042 ft | 487 kts | 237° |
| 2026-04-07 15:09 | 66.37349 | -91.70961 | 38041 ft | 487 kts | 237° |
| 2026-04-07 15:10 | 66.33376 | -91.84609 | 38050 ft | 486 kts | 238° |
| 2026-04-07 15:10 | 66.29385 | -91.98242 | 38043 ft | 487 kts | 237° |
| 2026-04-07 15:11 | 66.25388 | -92.11806 | 38058 ft | 487 kts | 237° |
| 2026-04-07 15:11 | 66.21371 | -92.25359 | 38052 ft | 488 kts | 237° |
| 2026-04-07 15:12 | 66.17344 | -92.38859 | 38058 ft | 488 kts | 237° |
| 2026-04-07 15:12 | 66.13297 | -92.52347 | 38060 ft | 488 kts | 237° |
| 2026-04-07 15:13 | 66.09244 | -92.65770 | 38049 ft | 487 kts | 237° |
| 2026-04-07 15:13 | 66.05207 | -92.79060 | 38066 ft | 487 kts | 237° |
| 2026-04-07 15:14 | 66.01137 | -92.92380 | 38072 ft | 487 kts | 237° |
| 2026-04-07 15:14 | 65.97055 | -93.05658 | 38068 ft | 487 kts | 237° |
| 2026-04-07 15:15 | 65.92964 | -93.18886 | 38080 ft | 487 kts | 237° |
| 2026-04-07 15:15 | 65.88863 | -93.32065 | 38078 ft | 487 kts | 237° |
| 2026-04-07 15:16 | 65.84745 | -93.45223 | 38072 ft | 486 kts | 237° |
| 2026-04-07 15:16 | 65.80631 | -93.58289 | 38091 ft | 485 kts | 237° |
| 2026-04-07 15:17 | 65.76525 | -93.71255 | 38092 ft | 485 kts | 237° |
| 2026-04-07 15:17 | 65.72396 | -93.84221 | 38100 ft | 485 kts | 237° |
| 2026-04-07 15:18 | 65.68243 | -93.97180 | 38098 ft | 485 kts | 237° |
| 2026-04-07 15:18 | 65.64082 | -94.10089 | 38106 ft | 485 kts | 237° |
| 2026-04-07 15:19 | 65.59948 | -94.22841 | 38052 ft | 485 kts | 237° |
| 2026-04-07 15:19 | 65.55777 | -94.35634 | 38100 ft | 484 kts | 237° |
| 2026-04-07 15:20 | 65.51598 | -94.48376 | 38106 ft | 484 kts | 237° |
| 2026-04-07 15:20 | 65.47405 | -94.61091 | 38121 ft | 484 kts | 237° |
| 2026-04-07 15:21 | 65.43202 | -94.73763 | 38122 ft | 485 kts | 236° |
| 2026-04-07 15:21 | 65.38974 | -94.86435 | 38123 ft | 486 kts | 236° |
| 2026-04-07 15:22 | 65.34757 | -94.99004 | 38124 ft | 486 kts | 236° |
| 2026-04-07 15:22 | 65.30512 | -95.11581 | 38131 ft | 485 kts | 236° |
| 2026-04-07 15:23 | 65.26256 | -95.24122 | 38134 ft | 486 kts | 236° |
| 2026-04-07 15:23 | 65.21991 | -95.36622 | 38142 ft | 486 kts | 236° |
| 2026-04-07 15:24 | 65.17735 | -95.49024 | 38139 ft | 486 kts | 236° |
| 2026-04-07 15:24 | 65.13446 | -95.61451 | 38146 ft | 486 kts | 236° |
| 2026-04-07 15:25 | 65.09141 | -95.73858 | 38149 ft | 486 kts | 236° |
| 2026-04-07 15:25 | 65.04844 | -95.86176 | 38146 ft | 484 kts | 236° |
| 2026-04-07 15:26 | 65.00541 | -95.98450 | 38156 ft | 484 kts | 236° |
| 2026-04-07 15:26 | 64.96270 | -96.10588 | 38167 ft | 483 kts | 236° |
| 2026-04-07 15:27 | 64.91969 | -96.22798 | 38160 ft | 483 kts | 236° |
| 2026-04-07 15:27 | 64.87669 | -96.34956 | 38160 ft | 483 kts | 236° |
| 2026-04-07 15:28 | 64.83360 | -96.47072 | 38160 ft | 483 kts | 236° |
| 2026-04-07 15:28 | 64.79048 | -96.59125 | 38153 ft | 481 kts | 236° |
| 2026-04-07 15:29 | 64.74740 | -96.71104 | 38165 ft | 480 kts | 236° |
| 2026-04-07 15:29 | 64.70423 | -96.83045 | 38175 ft | 480 kts | 236° |
| 2026-04-07 15:30 | 64.66095 | -96.94949 | 38175 ft | 480 kts | 236° |
| 2026-04-07 15:30 | 64.61755 | -97.06824 | 38174 ft | 480 kts | 236° |
| 2026-04-07 15:31 | 64.57437 | -97.18572 | 38178 ft | 480 kts | 236° |
| 2026-04-07 15:31 | 64.53081 | -97.30361 | 38204 ft | 481 kts | 236° |
| 2026-04-07 15:32 | 64.48706 | -97.42140 | 38181 ft | 481 kts | 235° |
| 2026-04-07 15:32 | 64.44326 | -97.53868 | 38203 ft | 481 kts | 235° |
| 2026-04-07 15:33 | 64.39930 | -97.65576 | 38191 ft | 481 kts | 235° |
| 2026-04-07 15:33 | 64.35529 | -97.77237 | 38187 ft | 482 kts | 235° |
| 2026-04-07 15:34 | 64.31109 | -97.88885 | 38187 ft | 482 kts | 235° |
| 2026-04-07 15:34 | 64.26683 | -98.00488 | 38181 ft | 481 kts | 235° |
| 2026-04-07 15:35 | 64.22258 | -98.12025 | 38194 ft | 481 kts | 235° |
| 2026-04-07 15:35 | 64.17820 | -98.23538 | 38200 ft | 481 kts | 234° |
| 2026-04-07 15:36 | 64.13372 | -98.35018 | 38206 ft | 482 kts | 234° |
| 2026-04-07 15:36 | 64.08930 | -98.46419 | 38201 ft | 482 kts | 234° |
| 2026-04-07 15:37 | 64.04460 | -98.57833 | 38217 ft | 482 kts | 234° |
| 2026-04-07 15:37 | 63.99980 | -98.69214 | 38157 ft | 482 kts | 234° |
| 2026-04-07 15:38 | 63.95499 | -98.80538 | 38216 ft | 481 kts | 234° |
| 2026-04-07 15:38 | 63.91001 | -98.91849 | 38216 ft | 482 kts | 234° |
| 2026-04-07 15:39 | 63.86498 | -99.03113 | 38218 ft | 482 kts | 234° |
| 2026-04-07 15:39 | 63.82008 | -99.14286 | 38227 ft | 482 kts | 234° |
| 2026-04-07 15:40 | 63.77483 | -99.25489 | 38227 ft | 482 kts | 234° |
| 2026-04-07 15:40 | 63.72948 | -99.36660 | 38167 ft | 482 kts | 234° |
| 2026-04-07 15:41 | 63.68403 | -99.47794 | 38227 ft | 481 kts | 234° |
| 2026-04-07 15:41 | 63.63862 | -99.58868 | 38235 ft | 481 kts | 234° |
| 2026-04-07 15:42 | 63.59307 | -99.69920 | 38239 ft | 482 kts | 233° |
| 2026-04-07 15:42 | 63.52448 | -99.86453 | 38241 ft | 482 kts | 233° |
| 2026-04-07 15:43 | 63.47892 | -99.97366 | 38249 ft | 482 kts | 233° |
| 2026-04-07 15:43 | 63.43300 | -100.08308 | 38245 ft | 481 kts | 233° |
| 2026-04-07 15:44 | 63.38713 | -100.19186 | 38252 ft | 481 kts | 233° |
| 2026-04-07 15:44 | 63.34119 | -100.30028 | 38252 ft | 481 kts | 233° |
| 2026-04-07 15:45 | 63.29520 | -100.40825 | 38259 ft | 480 kts | 233° |
| 2026-04-07 15:45 | 63.24909 | -100.51598 | 38259 ft | 480 kts | 233° |
| 2026-04-07 15:46 | 63.20297 | -100.62320 | 38256 ft | 480 kts | 233° |
| 2026-04-07 15:46 | 63.15706 | -100.72939 | 38258 ft | 479 kts | 232° |
| 2026-04-07 15:47 | 63.11093 | -100.83560 | 38267 ft | 479 kts | 232° |
| 2026-04-07 15:47 | 63.06468 | -100.94156 | 38276 ft | 478 kts | 232° |
| 2026-04-07 15:48 | 63.02596 | -101.02988 | 38262 ft | 478 kts | 232° |
| 2026-04-07 15:48 | 62.97994 | -101.13435 | 38258 ft | 478 kts | 232° |
| 2026-04-07 15:49 | 62.93354 | -101.23918 | 38271 ft | 477 kts | 232° |
| 2026-04-07 15:49 | 62.88717 | -101.34342 | 38270 ft | 475 kts | 232° |
| 2026-04-07 15:50 | 62.84093 | -101.44691 | 38276 ft | 475 kts | 232° |
| 2026-04-07 15:50 | 62.79472 | -101.54984 | 38279 ft | 474 kts | 232° |
| 2026-04-07 15:51 | 62.74834 | -101.65267 | 38293 ft | 474 kts | 232° |
| 2026-04-07 15:51 | 62.70224 | -101.75435 | 38294 ft | 475 kts | 232° |
| 2026-04-07 15:52 | 62.65550 | -101.85700 | 38283 ft | 475 kts | 232° |
| 2026-04-07 15:52 | 62.60923 | -101.95810 | 38257 ft | 473 kts | 232° |
| 2026-04-07 15:53 | 62.56273 | -102.05922 | 38295 ft | 473 kts | 232° |
| 2026-04-07 15:53 | 62.51609 | -102.16021 | 38299 ft | 474 kts | 232° |
| 2026-04-07 15:54 | 62.46933 | -102.26099 | 38294 ft | 474 kts | 232° |
| 2026-04-07 15:54 | 62.42276 | -102.36088 | 38294 ft | 475 kts | 231° |
| 2026-04-07 15:55 | 62.37581 | -102.46110 | 38302 ft | 475 kts | 231° |
| 2026-04-07 15:55 | 62.32870 | -102.56119 | 38289 ft | 474 kts | 231° |
| 2026-04-07 15:56 | 62.28168 | -102.66063 | 38302 ft | 474 kts | 231° |
| 2026-04-07 15:56 | 62.23477 | -102.75938 | 38285 ft | 474 kts | 231° |
| 2026-04-07 15:57 | 62.18759 | -102.85825 | 38312 ft | 475 kts | 231° |
| 2026-04-07 15:57 | 62.14024 | -102.95702 | 38304 ft | 475 kts | 231° |
| 2026-04-07 15:58 | 62.09283 | -103.05545 | 38302 ft | 475 kts | 231° |
| 2026-04-07 15:58 | 62.04533 | -103.15361 | 38310 ft | 474 kts | 230° |
| 2026-04-07 15:59 | 61.99782 | -103.25137 | 38301 ft | 475 kts | 230° |
| 2026-04-07 15:59 | 61.95058 | -103.34811 | 38311 ft | 475 kts | 230° |
| 2026-04-07 16:00 | 61.90293 | -103.44524 | 38307 ft | 475 kts | 230° |
| 2026-04-07 16:00 | 61.85517 | -103.54216 | 38291 ft | 475 kts | 230° |
| 2026-04-07 16:01 | 61.80743 | -103.63861 | 38316 ft | 474 kts | 230° |
| 2026-04-07 16:01 | 61.75965 | -103.73469 | 38315 ft | 474 kts | 230° |
| 2026-04-07 16:02 | 61.71175 | -103.83060 | 38321 ft | 474 kts | 230° |
| 2026-04-07 16:02 | 61.66405 | -103.92566 | 38317 ft | 474 kts | 230° |
| 2026-04-07 16:03 | 61.61608 | -104.02085 | 38318 ft | 474 kts | 230° |
| 2026-04-07 16:03 | 61.56805 | -104.11573 | 38316 ft | 474 kts | 230° |
| 2026-04-07 16:04 | 61.52017 | -104.20989 | 38299 ft | 474 kts | 229° |
| 2026-04-07 16:04 | 61.47203 | -104.30414 | 38290 ft | 473 kts | 229° |
| 2026-04-07 16:05 | 61.42401 | -104.39773 | 38311 ft | 472 kts | 229° |
| 2026-04-07 16:05 | 61.37590 | -104.49109 | 38320 ft | 472 kts | 229° |
| 2026-04-07 16:06 | 61.32773 | -104.58417 | 38319 ft | 472 kts | 229° |
| 2026-04-07 16:06 | 61.27939 | -104.67716 | 38316 ft | 472 kts | 229° |
| 2026-04-07 16:07 | 61.23109 | -104.76966 | 38319 ft | 472 kts | 229° |
| 2026-04-07 16:07 | 61.18280 | -104.86172 | 38317 ft | 471 kts | 229° |
| 2026-04-07 16:08 | 61.13452 | -104.95340 | 38319 ft | 471 kts | 228° |
| 2026-04-07 16:08 | 61.08616 | -105.04482 | 38310 ft | 471 kts | 228° |
| 2026-04-07 16:09 | 61.03773 | -105.13597 | 38308 ft | 471 kts | 228° |
| 2026-04-07 16:09 | 60.98956 | -105.22626 | 38305 ft | 471 kts | 228° |
| 2026-04-07 16:10 | 60.94088 | -105.31709 | 38253 ft | 471 kts | 228° |
| 2026-04-07 16:10 | 60.89234 | -105.40727 | 38299 ft | 470 kts | 228° |
| 2026-04-07 16:11 | 60.84376 | -105.49715 | 38303 ft | 470 kts | 228° |
| 2026-04-07 16:11 | 60.79512 | -105.58676 | 38302 ft | 470 kts | 228° |
| 2026-04-07 16:12 | 60.74640 | -105.67615 | 38293 ft | 471 kts | 227° |
| 2026-04-07 16:12 | 60.69756 | -105.76535 | 38290 ft | 471 kts | 227° |
| 2026-04-07 16:13 | 60.64899 | -105.85370 | 38254 ft | 470 kts | 227° |
| 2026-04-07 16:13 | 60.60009 | -105.94225 | 38267 ft | 470 kts | 227° |
| 2026-04-07 16:14 | 60.55121 | -106.03042 | 38291 ft | 470 kts | 227° |
| 2026-04-07 16:14 | 60.50222 | -106.11842 | 38284 ft | 470 kts | 227° |
| 2026-04-07 16:15 | 60.45322 | -106.20605 | 38287 ft | 470 kts | 227° |
| 2026-04-07 16:15 | 60.40411 | -106.29353 | 38283 ft | 470 kts | 227° |
| 2026-04-07 16:16 | 60.35501 | -106.38062 | 38253 ft | 469 kts | 227° |
| 2026-04-07 16:16 | 60.30630 | -106.46665 | 38261 ft | 468 kts | 227° |
| 2026-04-07 16:17 | 60.25727 | -106.55290 | 38264 ft | 467 kts | 227° |
| 2026-04-07 16:17 | 60.20831 | -106.63870 | 38266 ft | 467 kts | 227° |
| 2026-04-07 16:18 | 60.15922 | -106.72436 | 38265 ft | 467 kts | 227° |
| 2026-04-07 16:18 | 60.11013 | -106.80969 | 38259 ft | 467 kts | 226° |
| 2026-04-07 16:19 | 60.06102 | -106.89474 | 38266 ft | 466 kts | 226° |
| 2026-04-07 16:19 | 60.01192 | -106.97940 | 38261 ft | 466 kts | 226° |
| 2026-04-07 16:20 | 59.95964 | -107.05731 | 38264 ft | 471 kts | 220° |
| 2026-04-07 16:20 | 59.90560 | -107.13043 | 38246 ft | 471 kts | 220° |
| 2026-04-07 16:21 | 59.85130 | -107.20392 | 38238 ft | 471 kts | 220° |
| 2026-04-07 16:21 | 59.79715 | -107.27747 | 38242 ft | 471 kts | 220° |
| 2026-04-07 16:22 | 59.74302 | -107.35094 | 38230 ft | 471 kts | 220° |
| 2026-04-07 16:22 | 59.68915 | -107.42383 | 38226 ft | 471 kts | 220° |
| 2026-04-07 16:23 | 59.63497 | -107.49682 | 38228 ft | 471 kts | 219° |
| 2026-04-07 16:23 | 59.58065 | -107.56970 | 38235 ft | 471 kts | 219° |
| 2026-04-07 16:24 | 59.52630 | -107.64230 | 38214 ft | 471 kts | 219° |
| 2026-04-07 16:24 | 59.47198 | -107.71459 | 38220 ft | 471 kts | 219° |
| 2026-04-07 16:25 | 59.41766 | -107.78658 | 38213 ft | 471 kts | 219° |
| 2026-04-07 16:25 | 59.36323 | -107.85844 | 38212 ft | 471 kts | 219° |
| 2026-04-07 16:26 | 59.30876 | -107.93009 | 38214 ft | 471 kts | 219° |
| 2026-04-07 16:26 | 59.25456 | -108.00108 | 38212 ft | 471 kts | 219° |
| 2026-04-07 16:27 | 59.20006 | -108.07221 | 38183 ft | 472 kts | 219° |
| 2026-04-07 16:27 | 59.14547 | -108.14316 | 38203 ft | 472 kts | 218° |
| 2026-04-07 16:28 | 59.09081 | -108.21394 | 38186 ft | 471 kts | 218° |
| 2026-04-07 16:28 | 59.03618 | -108.28439 | 38190 ft | 471 kts | 218° |
| 2026-04-07 16:29 | 58.98151 | -108.35463 | 38188 ft | 471 kts | 218° |
| 2026-04-07 16:29 | 58.92681 | -108.42463 | 38184 ft | 471 kts | 218° |
| 2026-04-07 16:30 | 58.87207 | -108.49442 | 38184 ft | 471 kts | 218° |
| 2026-04-07 16:30 | 58.81760 | -108.56359 | 38163 ft | 471 kts | 218° |
| 2026-04-07 16:31 | 58.76280 | -108.63292 | 38173 ft | 470 kts | 218° |
| 2026-04-07 16:31 | 58.70807 | -108.70189 | 38171 ft | 470 kts | 218° |
| 2026-04-07 16:32 | 58.65332 | -108.77064 | 38152 ft | 470 kts | 218° |
| 2026-04-07 16:32 | 58.59862 | -108.83905 | 38159 ft | 470 kts | 218° |
| 2026-04-07 16:33 | 58.54379 | -108.90737 | 38158 ft | 470 kts | 218° |
| 2026-04-07 16:33 | 58.48897 | -108.97541 | 38158 ft | 470 kts | 218° |
| 2026-04-07 16:34 | 58.43413 | -109.04324 | 38137 ft | 469 kts | 217° |
| 2026-04-07 16:34 | 58.37964 | -109.11037 | 38144 ft | 469 kts | 217° |
| 2026-04-07 16:35 | 58.32470 | -109.17780 | 38122 ft | 470 kts | 217° |
| 2026-04-07 16:35 | 58.26968 | -109.24508 | 38125 ft | 470 kts | 217° |
| 2026-04-07 16:36 | 58.21457 | -109.31222 | 38119 ft | 471 kts | 217° |
| 2026-04-07 16:36 | 58.15935 | -109.37923 | 38115 ft | 471 kts | 217° |
| 2026-04-07 16:37 | 58.10410 | -109.44599 | 38076 ft | 469 kts | 217° |
| 2026-04-07 16:37 | 58.05908 | -109.50255 | 38080 ft | 468 kts | 217° |
| 2026-04-07 16:38 | 58.00397 | -109.56782 | 38096 ft | 468 kts | 216° |
| 2026-04-07 16:38 | 57.94876 | -109.63272 | 38092 ft | 467 kts | 216° |
| 2026-04-07 16:39 | 57.89367 | -109.69807 | 38071 ft | 467 kts | 216° |
| 2026-04-07 16:39 | 57.83871 | -109.76338 | 38075 ft | 467 kts | 216° |
| 2026-04-07 16:40 | 57.78369 | -109.82856 | 38044 ft | 467 kts | 216° |
| 2026-04-07 16:40 | 57.72906 | -109.89300 | 38045 ft | 467 kts | 216° |
| 2026-04-07 16:41 | 57.67403 | -109.95766 | 38058 ft | 466 kts | 216° |
| 2026-04-07 16:41 | 57.61896 | -110.02212 | 38040 ft | 466 kts | 216° |
| 2026-04-07 16:42 | 57.56400 | -110.08622 | 38048 ft | 466 kts | 216° |
| 2026-04-07 16:42 | 57.50891 | -110.15024 | 38041 ft | 466 kts | 215° |
| 2026-04-07 16:43 | 57.45383 | -110.21403 | 38018 ft | 466 kts | 215° |
| 2026-04-07 16:43 | 57.39872 | -110.27761 | 38023 ft | 467 kts | 215° |
| 2026-04-07 16:44 | 57.34354 | -110.34106 | 38018 ft | 467 kts | 214° |
| 2026-04-07 16:44 | 57.28860 | -110.40400 | 38019 ft | 467 kts | 214° |
| 2026-04-07 16:45 | 57.23315 | -110.46730 | 38007 ft | 468 kts | 214° |
| 2026-04-07 16:45 | 57.17772 | -110.53035 | 38009 ft | 468 kts | 214° |
| 2026-04-07 16:46 | 57.12223 | -110.59324 | 37988 ft | 468 kts | 214° |
| 2026-04-07 16:46 | 57.06664 | -110.65602 | 37991 ft | 468 kts | 214° |
| 2026-04-07 16:47 | 57.01109 | -110.71854 | 37983 ft | 469 kts | 214° |
| 2026-04-07 16:47 | 56.95542 | -110.78098 | 37980 ft | 469 kts | 214° |
| 2026-04-07 16:48 | 56.89967 | -110.84328 | 37968 ft | 469 kts | 214° |
| 2026-04-07 16:49 | 56.81623 | -110.93613 | 37922 ft | 470 kts | 213° |
| 2026-04-07 16:49 | 56.76029 | -110.99812 | 37901 ft | 470 kts | 213° |
| 2026-04-07 16:50 | 56.70440 | -111.05986 | 37898 ft | 470 kts | 213° |
| 2026-04-07 16:50 | 56.64849 | -111.12138 | 37886 ft | 470 kts | 213° |
| 2026-04-07 16:51 | 56.59177 | -111.18063 | 37886 ft | 470 kts | 211° |
| 2026-04-07 16:51 | 56.53448 | -111.23781 | 37890 ft | 469 kts | 211° |
| 2026-04-07 16:52 | 56.47766 | -111.29452 | 37891 ft | 469 kts | 211° |
| 2026-04-07 16:52 | 56.42054 | -111.35177 | 37914 ft | 470 kts | 211° |
| 2026-04-07 16:53 | 56.36340 | -111.40907 | 37911 ft | 470 kts | 211° |
| 2026-04-07 16:53 | 56.30610 | -111.46639 | 37913 ft | 471 kts | 211° |
| 2026-04-07 16:54 | 56.24877 | -111.52351 | 37913 ft | 471 kts | 211° |
| 2026-04-07 16:54 | 56.19139 | -111.58047 | 37899 ft | 471 kts | 211° |
| 2026-04-07 16:55 | 56.13398 | -111.63727 | 37903 ft | 471 kts | 211° |
| 2026-04-07 16:55 | 56.07657 | -111.69388 | 37888 ft | 471 kts | 211° |
| 2026-04-07 16:56 | 56.01901 | -111.75044 | 37888 ft | 471 kts | 211° |
| 2026-04-07 16:56 | 55.96138 | -111.80675 | 37874 ft | 471 kts | 211° |
| 2026-04-07 16:57 | 55.90412 | -111.86300 | 37879 ft | 469 kts | 211° |
| 2026-04-07 16:57 | 55.84711 | -111.91874 | 37881 ft | 470 kts | 211° |
| 2026-04-07 16:58 | 55.78959 | -111.97413 | 37876 ft | 470 kts | 211° |
| 2026-04-07 16:58 | 55.73203 | -112.02954 | 37876 ft | 471 kts | 211° |
| 2026-04-07 16:59 | 55.67445 | -112.08494 | 37872 ft | 471 kts | 211° |
| 2026-04-07 16:59 | 55.61684 | -112.14022 | 37856 ft | 471 kts | 211° |
| 2026-04-07 17:00 | 55.55916 | -112.19539 | 37860 ft | 471 kts | 211° |
| 2026-04-07 17:00 | 55.50153 | -112.25032 | 37864 ft | 471 kts | 211° |
| 2026-04-07 17:01 | 55.44382 | -112.30513 | 37862 ft | 471 kts | 211° |
| 2026-04-07 17:01 | 55.38646 | -112.35944 | 37857 ft | 471 kts | 211° |
| 2026-04-07 17:02 | 55.32864 | -112.41399 | 37857 ft | 471 kts | 211° |
| 2026-04-07 17:02 | 55.27084 | -112.46833 | 37848 ft | 471 kts | 211° |
| 2026-04-07 17:03 | 55.21303 | -112.52252 | 37854 ft | 470 kts | 211° |
| 2026-04-07 17:03 | 55.15531 | -112.57643 | 37852 ft | 469 kts | 211° |
| 2026-04-07 17:04 | 55.09766 | -112.63010 | 37855 ft | 468 kts | 211° |
| 2026-04-07 17:04 | 55.04015 | -112.68348 | 37856 ft | 468 kts | 211° |
| 2026-04-07 17:05 | 54.98304 | -112.73630 | 37855 ft | 467 kts | 211° |
| 2026-04-07 17:05 | 54.92552 | -112.78933 | 37852 ft | 467 kts | 211° |
| 2026-04-07 17:06 | 54.86815 | -112.84205 | 37855 ft | 466 kts | 211° |
| 2026-04-07 17:06 | 54.81088 | -112.89451 | 37854 ft | 465 kts | 210° |
| 2026-04-07 17:07 | 54.75355 | -112.94685 | 37854 ft | 465 kts | 210° |
| 2026-04-07 17:07 | 54.69630 | -112.99896 | 37855 ft | 465 kts | 210° |
| 2026-04-07 17:08 | 54.63904 | -113.05091 | 37858 ft | 465 kts | 210° |
| 2026-04-07 17:08 | 54.58204 | -113.10246 | 37851 ft | 465 kts | 210° |
| 2026-04-07 17:09 | 54.52462 | -113.15422 | 37848 ft | 466 kts | 210° |
| 2026-04-07 17:09 | 54.46702 | -113.20597 | 37852 ft | 468 kts | 210° |
| 2026-04-07 17:10 | 54.40924 | -113.25775 | 37861 ft | 469 kts | 210° |
| 2026-04-07 17:10 | 54.35121 | -113.30956 | 37857 ft | 470 kts | 210° |
| 2026-04-07 17:11 | 54.29305 | -113.36131 | 37842 ft | 471 kts | 210° |
| 2026-04-07 17:11 | 54.23526 | -113.41258 | 37851 ft | 471 kts | 210° |
| 2026-04-07 17:12 | 54.17706 | -113.46403 | 37835 ft | 471 kts | 211° |
| 2026-04-07 17:12 | 54.11899 | -113.51520 | 37839 ft | 469 kts | 210° |
| 2026-04-07 17:13 | 54.06116 | -113.56601 | 37845 ft | 467 kts | 210° |
| 2026-04-07 17:13 | 54.00348 | -113.61654 | 37838 ft | 466 kts | 210° |
| 2026-04-07 17:14 | 53.94585 | -113.66687 | 37832 ft | 466 kts | 210° |
| 2026-04-07 17:14 | 53.88821 | -113.71705 | 37795 ft | 465 kts | 210° |
| 2026-04-07 17:15 | 53.83092 | -113.76676 | 37782 ft | 465 kts | 210° |
| 2026-04-07 17:15 | 53.77325 | -113.81664 | 37768 ft | 465 kts | 210° |
| 2026-04-07 17:16 | 53.71556 | -113.86639 | 37764 ft | 465 kts | 210° |
| 2026-04-07 17:16 | 53.65786 | -113.91599 | 37775 ft | 466 kts | 210° |
| 2026-04-07 17:17 | 53.60007 | -113.96553 | 37762 ft | 466 kts | 210° |
| 2026-04-07 17:17 | 53.54221 | -114.01497 | 37776 ft | 467 kts | 210° |
| 2026-04-07 17:18 | 53.48421 | -114.06437 | 37802 ft | 468 kts | 210° |
| 2026-04-07 17:18 | 53.42648 | -114.11339 | 37834 ft | 468 kts | 210° |
| 2026-04-07 17:19 | 53.36816 | -114.16276 | 37835 ft | 469 kts | 210° |
| 2026-04-07 17:19 | 53.30982 | -114.21199 | 37836 ft | 470 kts | 210° |
| 2026-04-07 17:20 | 53.25136 | -114.26118 | 38006 ft | 471 kts | 210° |
| 2026-04-07 17:20 | 53.22195 | -114.28587 | 38285 ft | 470 kts | 210° |
| 2026-04-07 17:20 | 53.19275 | -114.31033 | 38583 ft | 469 kts | 210° |
| 2026-04-07 17:20 | 53.16395 | -114.33442 | 38812 ft | 468 kts | 210° |
| 2026-04-07 17:21 | 53.13451 | -114.35901 | 38981 ft | 468 kts | 210° |
| 2026-04-07 17:21 | 53.10529 | -114.38339 | 39149 ft | 469 kts | 210° |
| 2026-04-07 17:21 | 53.07643 | -114.40744 | 39309 ft | 469 kts | 210° |
| 2026-04-07 17:21 | 53.04720 | -114.43175 | 39511 ft | 469 kts | 210° |
| 2026-04-07 17:22 | 53.01801 | -114.45600 | 39663 ft | 469 kts | 210° |
| 2026-04-07 17:22 | 52.95937 | -114.50459 | 39762 ft | 471 kts | 210° |
| 2026-04-07 17:23 | 52.90076 | -114.55299 | 39810 ft | 471 kts | 211° |
| 2026-04-07 17:23 | 52.84189 | -114.60148 | 39808 ft | 473 kts | 210° |
| 2026-04-07 17:24 | 52.78330 | -114.64960 | 39805 ft | 474 kts | 210° |
| 2026-04-07 17:24 | 52.72419 | -114.69798 | 39803 ft | 474 kts | 210° |
| 2026-04-07 17:25 | 52.66502 | -114.74626 | 39804 ft | 474 kts | 210° |
| 2026-04-07 17:25 | 52.60576 | -114.79444 | 39787 ft | 474 kts | 211° |
| 2026-04-07 17:26 | 52.55666 | -114.83428 | 39791 ft | 474 kts | 211° |
| 2026-04-07 17:26 | 52.49745 | -114.88219 | 39793 ft | 474 kts | 211° |
| 2026-04-07 17:27 | 52.42866 | -114.93768 | 39793 ft | 474 kts | 211° |
| 2026-04-07 17:27 | 52.37907 | -114.97755 | 39799 ft | 474 kts | 211° |
| 2026-04-07 17:28 | 52.31990 | -115.02499 | 39793 ft | 473 kts | 211° |
| 2026-04-07 17:28 | 52.26109 | -115.07199 | 39789 ft | 473 kts | 211° |
| 2026-04-07 17:29 | 52.20193 | -115.11915 | 39796 ft | 473 kts | 211° |
| 2026-04-07 17:29 | 52.14283 | -115.16612 | 39798 ft | 473 kts | 211° |
| 2026-04-07 17:30 | 52.08371 | -115.21296 | 39788 ft | 473 kts | 210° |
| 2026-04-07 17:30 | 52.02455 | -115.25969 | 39792 ft | 472 kts | 210° |
| 2026-04-07 17:31 | 51.96540 | -115.30627 | 39779 ft | 472 kts | 211° |
| 2026-04-07 17:31 | 51.90664 | -115.35242 | 39781 ft | 472 kts | 211° |
| 2026-04-07 17:32 | 51.84747 | -115.39876 | 39790 ft | 473 kts | 210° |
| 2026-04-07 17:32 | 51.78830 | -115.44496 | 39791 ft | 473 kts | 210° |
| 2026-04-07 17:33 | 51.72893 | -115.49117 | 39788 ft | 473 kts | 210° |
| 2026-04-07 17:33 | 51.66948 | -115.53731 | 39779 ft | 473 kts | 210° |
| 2026-04-07 17:34 | 51.61015 | -115.58323 | 39804 ft | 473 kts | 210° |
| 2026-04-07 17:34 | 51.55077 | -115.62905 | 39771 ft | 473 kts | 210° |
| 2026-04-07 17:35 | 51.49181 | -115.67440 | 39781 ft | 472 kts | 210° |
| 2026-04-07 17:35 | 51.43256 | -115.71986 | 39768 ft | 472 kts | 210° |
| 2026-04-07 17:36 | 51.37329 | -115.76520 | 39774 ft | 472 kts | 210° |
| 2026-04-07 17:36 | 51.31397 | -115.81045 | 39769 ft | 472 kts | 210° |
| 2026-04-07 17:37 | 51.25450 | -115.85569 | 39789 ft | 473 kts | 210° |
| 2026-04-07 17:37 | 51.19498 | -115.90082 | 39786 ft | 474 kts | 210° |
| 2026-04-07 17:38 | 51.13567 | -115.94568 | 39812 ft | 475 kts | 210° |
| 2026-04-07 17:38 | 51.07591 | -115.99074 | 39785 ft | 475 kts | 210° |
| 2026-04-07 17:39 | 51.01614 | -116.03568 | 39793 ft | 475 kts | 211° |
| 2026-04-07 17:39 | 50.95641 | -116.08045 | 39800 ft | 474 kts | 211° |
| 2026-04-07 17:40 | 50.89661 | -116.12516 | 39804 ft | 475 kts | 210° |
| 2026-04-07 17:40 | 50.83684 | -116.16971 | 39800 ft | 475 kts | 210° |
| 2026-04-07 17:41 | 50.77700 | -116.21420 | 39803 ft | 474 kts | 210° |
| 2026-04-07 17:41 | 50.71773 | -116.25811 | 39809 ft | 473 kts | 211° |
| 2026-04-07 17:42 | 50.65822 | -116.30207 | 39842 ft | 471 kts | 211° |
| 2026-04-07 17:42 | 50.59893 | -116.34580 | 39842 ft | 470 kts | 211° |
| 2026-04-07 17:43 | 50.53966 | -116.38937 | 39907 ft | 469 kts | 211° |
| 2026-04-07 17:43 | 50.48045 | -116.43278 | 39872 ft | 468 kts | 211° |
| 2026-04-07 17:44 | 50.42141 | -116.47593 | 39910 ft | 468 kts | 211° |
| 2026-04-07 17:44 | 50.36271 | -116.51872 | 39912 ft | 467 kts | 211° |
| 2026-04-07 17:45 | 50.30373 | -116.56159 | 39929 ft | 467 kts | 211° |
| 2026-04-07 17:45 | 50.24469 | -116.60441 | 39927 ft | 467 kts | 211° |
| 2026-04-07 17:46 | 50.18576 | -116.64701 | 39914 ft | 466 kts | 211° |
| 2026-04-07 17:46 | 50.12692 | -116.68941 | 39928 ft | 465 kts | 211° |
| 2026-04-07 17:47 | 50.06853 | -116.73140 | 39924 ft | 465 kts | 211° |
| 2026-04-07 17:47 | 50.00975 | -116.77356 | 39929 ft | 465 kts | 211° |
| 2026-04-07 17:48 | 49.95059 | -116.81587 | 39935 ft | 465 kts | 211° |
| 2026-04-07 17:48 | 49.89215 | -116.85756 | 39920 ft | 465 kts | 211° |
| 2026-04-07 17:49 | 49.83335 | -116.89939 | 39930 ft | 465 kts | 211° |
| 2026-04-07 17:49 | 49.77458 | -116.94106 | 39924 ft | 464 kts | 211° |
| 2026-04-07 17:50 | 49.71588 | -116.98258 | 39932 ft | 464 kts | 211° |
| 2026-04-07 17:50 | 49.65712 | -117.02406 | 39936 ft | 464 kts | 211° |
| 2026-04-07 17:51 | 49.59850 | -117.06548 | 39921 ft | 463 kts | 211° |
| 2026-04-07 17:51 | 49.53971 | -117.10658 | 39937 ft | 463 kts | 211° |
| 2026-04-07 17:52 | 49.48103 | -117.14763 | 39952 ft | 463 kts | 211° |
| 2026-04-07 17:52 | 49.42265 | -117.18842 | 39958 ft | 463 kts | 211° |
| 2026-04-07 17:53 | 49.36398 | -117.22934 | 39975 ft | 463 kts | 211° |
| 2026-04-07 17:53 | 49.27586 | -117.29041 | 39980 ft | 462 kts | 211° |
| 2026-04-07 17:54 | 49.21720 | -117.33099 | 39974 ft | 462 kts | 211° |
| 2026-04-07 17:54 | 49.15861 | -117.37143 | 39951 ft | 462 kts | 212° |
| 2026-04-07 17:55 | 49.10035 | -117.41153 | 39950 ft | 462 kts | 211° |
| 2026-04-07 17:55 | 49.04174 | -117.45176 | 39949 ft | 462 kts | 212° |
| 2026-04-07 17:56 | 48.98314 | -117.49188 | 39960 ft | 462 kts | 212° |
| 2026-04-07 17:56 | 48.92452 | -117.53193 | 39972 ft | 462 kts | 212° |
| 2026-04-07 17:57 | 48.86579 | -117.57192 | 39957 ft | 462 kts | 212° |
| 2026-04-07 17:57 | 48.80706 | -117.61181 | 39963 ft | 462 kts | 212° |
| 2026-04-07 17:58 | 48.74877 | -117.65131 | 39954 ft | 462 kts | 212° |
| 2026-04-07 17:58 | 48.69011 | -117.69096 | 39970 ft | 462 kts | 212° |
| 2026-04-07 17:59 | 48.63148 | -117.73048 | 39965 ft | 462 kts | 212° |
| 2026-04-07 17:59 | 48.57271 | -117.77002 | 39961 ft | 461 kts | 212° |
| 2026-04-07 18:00 | 48.51406 | -117.80934 | 39962 ft | 460 kts | 212° |
| 2026-04-07 18:00 | 48.45591 | -117.84822 | 39968 ft | 459 kts | 212° |
| 2026-04-07 18:01 | 48.39760 | -117.88713 | 39962 ft | 458 kts | 212° |
| 2026-04-07 18:01 | 48.33938 | -117.92587 | 39969 ft | 456 kts | 212° |
| 2026-04-07 18:02 | 48.28139 | -117.96438 | 39956 ft | 455 kts | 213° |
| 2026-04-07 18:02 | 48.22344 | -118.00278 | 39966 ft | 455 kts | 212° |
| 2026-04-07 18:03 | 48.16539 | -118.04115 | 39958 ft | 455 kts | 213° |
| 2026-04-07 18:03 | 48.10772 | -118.07916 | 39967 ft | 455 kts | 213° |
| 2026-04-07 18:04 | 48.04965 | -118.11734 | 39959 ft | 456 kts | 212° |
| 2026-04-07 18:04 | 47.99151 | -118.15548 | 39945 ft | 457 kts | 212° |
| 2026-04-07 18:05 | 47.93329 | -118.19356 | 39941 ft | 457 kts | 212° |
| 2026-04-07 18:05 | 47.87513 | -118.23148 | 39941 ft | 455 kts | 212° |
| 2026-04-07 18:06 | 47.81708 | -118.26927 | 39940 ft | 455 kts | 212° |
| 2026-04-07 18:06 | 47.75901 | -118.30699 | 39936 ft | 455 kts | 212° |
| 2026-04-07 18:07 | 47.70102 | -118.34456 | 39922 ft | 455 kts | 212° |
| 2026-04-07 18:07 | 47.64332 | -118.38185 | 39912 ft | 455 kts | 212° |
| 2026-04-07 18:08 | 47.58529 | -118.41926 | 39938 ft | 455 kts | 212° |
| 2026-04-07 18:08 | 47.52717 | -118.45663 | 39950 ft | 455 kts | 212° |
| 2026-04-07 18:09 | 47.46913 | -118.49387 | 39941 ft | 455 kts | 212° |
| 2026-04-07 18:09 | 47.41107 | -118.53103 | 39952 ft | 455 kts | 212° |
| 2026-04-07 18:10 | 47.35293 | -118.56815 | 39921 ft | 454 kts | 212° |
| 2026-04-07 18:10 | 47.29499 | -118.60504 | 39937 ft | 454 kts | 212° |
| 2026-04-07 18:11 | 47.23701 | -118.64188 | 39944 ft | 454 kts | 212° |
| 2026-04-07 18:11 | 47.17894 | -118.67870 | 39945 ft | 454 kts | 212° |
| 2026-04-07 18:12 | 47.12126 | -118.71518 | 39946 ft | 454 kts | 212° |
| 2026-04-07 18:12 | 47.06326 | -118.75176 | 39938 ft | 453 kts | 211° |
| 2026-04-07 18:13 | 47.00528 | -118.78825 | 39959 ft | 453 kts | 211° |
| 2026-04-07 18:13 | 46.94733 | -118.82465 | 39949 ft | 453 kts | 211° |
| 2026-04-07 18:14 | 46.88935 | -118.86096 | 39958 ft | 453 kts | 211° |
| 2026-04-07 18:14 | 46.83133 | -118.89723 | 39965 ft | 454 kts | 212° |
| 2026-04-07 18:15 | 46.78296 | -118.92738 | 39960 ft | 454 kts | 212° |
| 2026-04-07 18:15 | 46.72485 | -118.96354 | 39965 ft | 454 kts | 212° |
| 2026-04-07 18:16 | 46.66662 | -118.99969 | 39975 ft | 455 kts | 211° |
| 2026-04-07 18:16 | 46.60833 | -119.03579 | 39973 ft | 455 kts | 211° |
| 2026-04-07 18:17 | 46.55033 | -119.07163 | 39976 ft | 456 kts | 212° |
| 2026-04-07 18:17 | 46.49182 | -119.10770 | 39986 ft | 457 kts | 212° |
| 2026-04-07 18:18 | 46.43322 | -119.14374 | 39983 ft | 457 kts | 212° |
| 2026-04-07 18:18 | 46.37454 | -119.17974 | 39989 ft | 458 kts | 211° |
| 2026-04-07 18:19 | 46.31579 | -119.21573 | 39960 ft | 458 kts | 211° |
| 2026-04-07 18:19 | 46.26260 | -119.24870 | 39959 ft | 457 kts | 212° |
| 2026-04-07 18:20 | 46.20453 | -119.28594 | 39978 ft | 456 kts | 212° |
| 2026-04-07 18:20 | 46.14698 | -119.32406 | 39995 ft | 454 kts | 213° |
| 2026-04-07 18:21 | 46.09031 | -119.36289 | 40017 ft | 453 kts | 214° |
| 2026-04-07 18:21 | 46.03386 | -119.40313 | 40004 ft | 451 kts | 215° |
| 2026-04-07 18:22 | 45.97857 | -119.44499 | 40043 ft | 447 kts | 217° |
| 2026-04-07 18:22 | 45.92452 | -119.48890 | 40078 ft | 444 kts | 218° |
| 2026-04-07 18:23 | 45.87189 | -119.53484 | 40093 ft | 441 kts | 220° |
| 2026-04-07 18:23 | 45.82080 | -119.58284 | 40108 ft | 438 kts | 222° |
| 2026-04-07 18:24 | 45.77166 | -119.63315 | 40107 ft | 435 kts | 224° |
| 2026-04-07 18:24 | 45.72387 | -119.68667 | 40114 ft | 432 kts | 227° |
| 2026-04-07 18:25 | 45.67881 | -119.74161 | 40086 ft | 421 kts | 229° |
| 2026-04-07 18:25 | 45.63576 | -119.79843 | 40090 ft | 423 kts | 231° |
| 2026-04-07 18:26 | 45.59392 | -119.85815 | 40119 ft | 425 kts | 233° |
| 2026-04-07 18:26 | 45.55376 | -119.91985 | 40159 ft | 423 kts | 235° |
| 2026-04-07 18:27 | 45.51534 | -119.98331 | 40195 ft | 422 kts | 237° |
| 2026-04-07 18:27 | 45.49404 | -120.01247 | 40118 ft | 436 kts | 220° |
| 2026-04-07 18:27 | 45.46551 | -120.02991 | 40072 ft | 461 kts | 200° |
| 2026-04-07 18:28 | 45.43276 | -120.03229 | 40046 ft | 485 kts | 180° |
| 2026-04-07 18:28 | 45.39927 | -120.02236 | 40018 ft | 497 kts | 172° |
| 2026-04-07 18:28 | 45.33333 | -119.98971 | 40041 ft | 504 kts | 166° |
| 2026-04-07 18:29 | 45.26841 | -119.95268 | 40044 ft | 506 kts | 165° |
| 2026-04-07 18:29 | 45.20260 | -119.91874 | 40015 ft | 496 kts | 175° |
| 2026-04-07 18:30 | 45.16910 | -119.91269 | 40034 ft | 476 kts | 191° |
| 2026-04-07 18:30 | 45.13711 | -119.91904 | 40051 ft | 457 kts | 205° |
| 2026-04-07 18:30 | 45.07910 | -119.95133 | 40055 ft | 444 kts | 214° |
| 2026-04-07 18:31 | 45.02242 | -119.98712 | 40058 ft | 448 kts | 212° |
| 2026-04-07 18:31 | 44.96414 | -120.01938 | 40046 ft | 452 kts | 208° |
| 2026-04-07 18:32 | 44.90446 | -120.04836 | 40051 ft | 453 kts | 208° |
| 2026-04-07 18:32 | 44.84473 | -120.07699 | 40060 ft | 453 kts | 208° |
| 2026-04-07 18:33 | 44.78548 | -120.10583 | 40064 ft | 453 kts | 208° |
| 2026-04-07 18:33 | 44.72595 | -120.13507 | 40040 ft | 453 kts | 208° |
| 2026-04-07 18:34 | 44.66650 | -120.16427 | 40058 ft | 453 kts | 208° |
| 2026-04-07 18:34 | 44.60700 | -120.19344 | 40078 ft | 452 kts | 208° |
| 2026-04-07 18:35 | 44.54754 | -120.22251 | 40077 ft | 452 kts | 208° |
| 2026-04-07 18:35 | 44.48848 | -120.25132 | 40080 ft | 452 kts | 208° |
| 2026-04-07 18:36 | 44.42900 | -120.28026 | 40077 ft | 451 kts | 208° |
| 2026-04-07 18:36 | 44.36971 | -120.30903 | 40077 ft | 450 kts | 208° |
| 2026-04-07 18:37 | 44.31059 | -120.33767 | 40091 ft | 449 kts | 208° |
| 2026-04-07 18:37 | 44.25150 | -120.36626 | 40094 ft | 449 kts | 208° |
| 2026-04-07 18:38 | 44.19285 | -120.39457 | 40062 ft | 448 kts | 208° |
| 2026-04-07 18:38 | 44.13368 | -120.42304 | 40089 ft | 447 kts | 208° |
| 2026-04-07 18:39 | 44.07524 | -120.45112 | 40096 ft | 447 kts | 208° |
| 2026-04-07 18:39 | 44.01646 | -120.47932 | 40097 ft | 447 kts | 208° |
| 2026-04-07 18:40 | 43.95765 | -120.50746 | 40085 ft | 447 kts | 207° |
| 2026-04-07 18:40 | 43.89885 | -120.53554 | 40095 ft | 447 kts | 207° |
| 2026-04-07 18:41 | 43.83995 | -120.56361 | 40099 ft | 447 kts | 207° |
| 2026-04-07 18:41 | 43.78111 | -120.59158 | 40092 ft | 447 kts | 207° |
| 2026-04-07 18:42 | 43.72223 | -120.61952 | 40108 ft | 447 kts | 207° |
| 2026-04-07 18:42 | 43.66334 | -120.64741 | 40095 ft | 447 kts | 207° |
| 2026-04-07 18:43 | 43.60477 | -120.67508 | 40103 ft | 447 kts | 207° |
| 2026-04-07 18:43 | 43.54581 | -120.70290 | 40108 ft | 448 kts | 207° |
| 2026-04-07 18:44 | 43.48673 | -120.73070 | 40105 ft | 448 kts | 207° |
| 2026-04-07 18:44 | 43.42773 | -120.75840 | 40083 ft | 448 kts | 206° |
| 2026-04-07 18:45 | 43.36867 | -120.78608 | 40108 ft | 449 kts | 206° |
| 2026-04-07 18:45 | 43.30952 | -120.81374 | 40112 ft | 449 kts | 206° |
| 2026-04-07 18:46 | 43.25019 | -120.84143 | 40112 ft | 450 kts | 206° |
| 2026-04-07 18:46 | 43.19120 | -120.86890 | 40109 ft | 450 kts | 206° |
| 2026-04-07 18:47 | 43.13183 | -120.89650 | 40108 ft | 451 kts | 206° |
| 2026-04-07 18:47 | 43.07240 | -120.92405 | 40117 ft | 451 kts | 206° |
| 2026-04-07 18:48 | 43.01290 | -120.95159 | 40121 ft | 451 kts | 206° |
| 2026-04-07 18:48 | 42.95341 | -120.97907 | 40111 ft | 451 kts | 206° |
| 2026-04-07 18:49 | 42.89392 | -121.00650 | 40123 ft | 451 kts | 206° |
| 2026-04-07 18:49 | 42.83473 | -121.03373 | 40132 ft | 451 kts | 206° |
| 2026-04-07 18:50 | 42.77521 | -121.06106 | 40135 ft | 451 kts | 206° |
| 2026-04-07 18:50 | 42.71565 | -121.08834 | 40120 ft | 451 kts | 206° |
| 2026-04-07 18:51 | 42.65626 | -121.11549 | 40119 ft | 450 kts | 205° |
| 2026-04-07 18:51 | 42.59681 | -121.14262 | 40136 ft | 450 kts | 205° |
| 2026-04-07 18:52 | 42.53750 | -121.16963 | 40135 ft | 449 kts | 205° |
| 2026-04-07 18:52 | 42.47826 | -121.19656 | 40125 ft | 449 kts | 205° |
| 2026-04-07 18:53 | 42.41897 | -121.22346 | 40123 ft | 449 kts | 205° |
| 2026-04-07 18:53 | 42.35979 | -121.25025 | 40125 ft | 448 kts | 205° |
| 2026-04-07 18:54 | 42.30059 | -121.27699 | 40130 ft | 448 kts | 205° |
| 2026-04-07 18:54 | 42.24147 | -121.30366 | 40128 ft | 448 kts | 205° |
| 2026-04-07 18:55 | 42.18260 | -121.33015 | 40126 ft | 447 kts | 205° |
| 2026-04-07 18:55 | 42.12356 | -121.35666 | 40139 ft | 447 kts | 205° |
| 2026-04-07 18:56 | 42.06458 | -121.38310 | 40134 ft | 447 kts | 205° |
| 2026-04-07 18:56 | 42.00581 | -121.40939 | 40123 ft | 447 kts | 205° |
| 2026-04-07 18:57 | 41.94683 | -121.43572 | 40120 ft | 446 kts | 205° |
| 2026-04-07 18:57 | 41.88788 | -121.46199 | 40124 ft | 446 kts | 205° |
| 2026-04-07 18:58 | 41.82888 | -121.48824 | 40117 ft | 446 kts | 205° |
| 2026-04-07 18:58 | 41.77025 | -121.51427 | 40113 ft | 446 kts | 204° |
| 2026-04-07 18:59 | 41.71123 | -121.54042 | 40119 ft | 446 kts | 204° |
| 2026-04-07 18:59 | 41.65227 | -121.56650 | 40129 ft | 446 kts | 204° |
| 2026-04-07 19:00 | 41.59329 | -121.59253 | 40139 ft | 446 kts | 204° |
| 2026-04-07 19:00 | 41.53430 | -121.61850 | 40136 ft | 446 kts | 204° |
| 2026-04-07 19:01 | 41.47532 | -121.64443 | 40149 ft | 447 kts | 204° |
| 2026-04-07 19:02 | 41.38659 | -121.68335 | 40153 ft | 447 kts | 204° |
| 2026-04-07 19:02 | 41.33746 | -121.70485 | 40142 ft | 447 kts | 204° |
| 2026-04-07 19:03 | 41.27834 | -121.73066 | 40150 ft | 447 kts | 204° |
| 2026-04-07 19:03 | 41.21920 | -121.75646 | 40146 ft | 447 kts | 204° |
| 2026-04-07 19:04 | 41.15995 | -121.78225 | 40140 ft | 447 kts | 204° |
| 2026-04-07 19:04 | 41.10115 | -121.80779 | 40129 ft | 448 kts | 204° |
| 2026-04-07 19:05 | 41.04193 | -121.83347 | 40133 ft | 448 kts | 204° |
| 2026-04-07 19:05 | 40.98266 | -121.85911 | 40124 ft | 448 kts | 204° |
| 2026-04-07 19:06 | 40.92350 | -121.88465 | 40129 ft | 447 kts | 204° |
| 2026-04-07 19:06 | 40.86429 | -121.91018 | 40122 ft | 448 kts | 204° |
| 2026-04-07 19:07 | 40.80510 | -121.93565 | 40123 ft | 448 kts | 204° |
| 2026-04-07 19:07 | 40.74581 | -121.96112 | 40119 ft | 447 kts | 204° |
| 2026-04-07 19:08 | 40.68655 | -121.98652 | 40126 ft | 447 kts | 204° |
| 2026-04-07 19:08 | 40.62734 | -122.01186 | 40116 ft | 447 kts | 203° |
| 2026-04-07 19:09 | 40.56840 | -122.03703 | 40121 ft | 447 kts | 203° |
| 2026-04-07 19:09 | 40.50912 | -122.06230 | 40125 ft | 447 kts | 203° |
| 2026-04-07 19:10 | 40.44990 | -122.08751 | 40111 ft | 447 kts | 203° |
| 2026-04-07 19:10 | 40.39067 | -122.11267 | 40121 ft | 447 kts | 203° |
| 2026-04-07 19:11 | 40.33139 | -122.13780 | 40134 ft | 447 kts | 203° |
| 2026-04-07 19:11 | 40.27212 | -122.16290 | 40150 ft | 447 kts | 203° |
| 2026-04-07 19:12 | 40.21292 | -122.18792 | 40138 ft | 447 kts | 203° |
| 2026-04-07 19:12 | 40.15411 | -122.21275 | 40138 ft | 446 kts | 203° |
| 2026-04-07 19:13 | 40.09489 | -122.23724 | 40147 ft | 447 kts | 200° |
| 2026-04-07 19:13 | 40.03385 | -122.25540 | 40137 ft | 450 kts | 198° |
| 2026-04-07 19:14 | 39.97267 | -122.27262 | 40146 ft | 450 kts | 198° |
| 2026-04-07 19:14 | 39.91146 | -122.29006 | 40139 ft | 449 kts | 198° |
| 2026-04-07 19:15 | 39.85071 | -122.30751 | 40143 ft | 449 kts | 198° |
| 2026-04-07 19:15 | 39.78966 | -122.32507 | 40130 ft | 449 kts | 198° |
| 2026-04-07 19:16 | 39.72865 | -122.34259 | 40146 ft | 449 kts | 198° |
| 2026-04-07 19:16 | 39.66766 | -122.36006 | 40146 ft | 449 kts | 198° |
| 2026-04-07 19:17 | 39.60663 | -122.37751 | 40131 ft | 448 kts | 198° |
| 2026-04-07 19:17 | 39.54572 | -122.39490 | 40139 ft | 447 kts | 198° |
| 2026-04-07 19:18 | 39.48527 | -122.41212 | 40134 ft | 447 kts | 198° |
| 2026-04-07 19:18 | 39.42447 | -122.42941 | 40138 ft | 447 kts | 198° |
| 2026-04-07 19:19 | 39.36362 | -122.44670 | 40126 ft | 447 kts | 198° |
| 2026-04-07 19:19 | 39.30277 | -122.46394 | 40132 ft | 447 kts | 198° |
| 2026-04-07 19:20 | 39.24194 | -122.48116 | 40127 ft | 448 kts | 198° |
| 2026-04-07 19:20 | 39.18141 | -122.49825 | 40119 ft | 448 kts | 198° |
| 2026-04-07 19:21 | 39.12056 | -122.51541 | 40131 ft | 448 kts | 198° |
| 2026-04-07 19:21 | 39.05976 | -122.53253 | 40127 ft | 448 kts | 198° |
| 2026-04-07 19:22 | 38.99885 | -122.54966 | 40129 ft | 448 kts | 198° |
| 2026-04-07 19:22 | 38.93830 | -122.56664 | 39603 ft | 441 kts | 198° |
| 2026-04-07 19:22 | 38.90840 | -122.57501 | 39153 ft | 438 kts | 198° |
| 2026-04-07 19:23 | 38.87881 | -122.58331 | 38750 ft | 434 kts | 198° |
| 2026-04-07 19:23 | 38.84939 | -122.59162 | 38170 ft | 432 kts | 198° |
| 2026-04-07 19:23 | 38.81987 | -122.60002 | 37335 ft | 436 kts | 198° |
| 2026-04-07 19:23 | 38.79013 | -122.60849 | 36600 ft | 438 kts | 198° |
| 2026-04-07 19:24 | 38.76032 | -122.61697 | 35862 ft | 441 kts | 198° |
| 2026-04-07 19:24 | 38.73029 | -122.62549 | 35152 ft | 443 kts | 197° |
| 2026-04-07 19:24 | 38.70011 | -122.63403 | 34440 ft | 445 kts | 197° |
| 2026-04-07 19:24 | 38.66981 | -122.64259 | 33665 ft | 447 kts | 197° |
| 2026-04-07 19:25 | 38.63932 | -122.65119 | 32921 ft | 448 kts | 197° |
| 2026-04-07 19:25 | 38.60939 | -122.65962 | 32260 ft | 447 kts | 197° |
| 2026-04-07 19:25 | 38.57899 | -122.66814 | 31716 ft | 444 kts | 197° |
| 2026-04-07 19:25 | 38.54896 | -122.67655 | 31212 ft | 439 kts | 197° |
| 2026-04-07 19:26 | 38.51924 | -122.68487 | 30712 ft | 435 kts | 197° |
| 2026-04-07 19:26 | 38.48977 | -122.69316 | 30189 ft | 432 kts | 198° |
| 2026-04-07 19:26 | 38.46045 | -122.70144 | 29597 ft | 429 kts | 198° |
| 2026-04-07 19:26 | 38.43140 | -122.70962 | 29023 ft | 425 kts | 197° |
| 2026-04-07 19:27 | 38.40268 | -122.71767 | 28474 ft | 421 kts | 197° |
| 2026-04-07 19:27 | 38.37423 | -122.72564 | 27940 ft | 417 kts | 197° |
| 2026-04-07 19:27 | 38.34591 | -122.73357 | 27413 ft | 414 kts | 197° |
| 2026-04-07 19:27 | 38.31796 | -122.74140 | 26880 ft | 410 kts | 196° |
| 2026-04-07 19:28 | 38.29009 | -122.74920 | 26351 ft | 407 kts | 196° |
| 2026-04-07 19:28 | 38.26288 | -122.75679 | 25869 ft | 404 kts | 196° |
| 2026-04-07 19:28 | 38.23548 | -122.76406 | 25362 ft | 399 kts | 192° |
| 2026-04-07 19:28 | 38.20740 | -122.76470 | 24419 ft | 415 kts | 173° |
| 2026-04-07 19:29 | 38.17869 | -122.75582 | 23404 ft | 438 kts | 168° |
| 2026-04-07 19:29 | 38.14867 | -122.74618 | 22794 ft | 446 kts | 169° |
| 2026-04-07 19:29 | 38.11826 | -122.73684 | 22589 ft | 451 kts | 169° |
| 2026-04-07 19:29 | 38.08788 | -122.72779 | 22465 ft | 447 kts | 169° |
| 2026-04-07 19:30 | 38.05758 | -122.71894 | 22466 ft | 446 kts | 170° |
| 2026-04-07 19:30 | 38.02725 | -122.71016 | 22457 ft | 448 kts | 170° |
| 2026-04-07 19:30 | 37.99678 | -122.70136 | 22461 ft | 448 kts | 170° |
| 2026-04-07 19:30 | 37.96641 | -122.69259 | 22455 ft | 447 kts | 170° |
| 2026-04-07 19:31 | 37.93622 | -122.68388 | 22076 ft | 442 kts | 170° |
| 2026-04-07 19:31 | 37.90670 | -122.67427 | 21197 ft | 437 kts | 163° |
| 2026-04-07 19:31 | 37.88001 | -122.65547 | 20264 ft | 444 kts | 142° |
| 2026-04-07 19:31 | 37.85760 | -122.62927 | 19363 ft | 438 kts | 140° |
| 2026-04-07 19:32 | 37.83504 | -122.60421 | 18555 ft | 437 kts | 142° |
| 2026-04-07 19:32 | 37.81175 | -122.57966 | 17823 ft | 434 kts | 142° |
| 2026-04-07 19:32 | 37.78858 | -122.55556 | 17190 ft | 428 kts | 142° |
| 2026-04-07 19:32 | 37.76586 | -122.53171 | 16559 ft | 422 kts | 142° |
| 2026-04-07 19:33 | 37.74340 | -122.50801 | 15914 ft | 419 kts | 142° |
| 2026-04-07 19:33 | 37.72115 | -122.48445 | 15265 ft | 416 kts | 141° |
| 2026-04-07 19:33 | 37.69906 | -122.46094 | 14649 ft | 413 kts | 141° |
| 2026-04-07 19:33 | 37.67723 | -122.43767 | 14093 ft | 410 kts | 141° |
| 2026-04-07 19:34 | 37.65549 | -122.41451 | 13463 ft | 407 kts | 141° |
| 2026-04-07 19:34 | 37.63392 | -122.39149 | 12816 ft | 405 kts | 141° |
| 2026-04-07 19:34 | 37.61256 | -122.36876 | 12244 ft | 400 kts | 141° |
| 2026-04-07 19:34 | 37.59136 | -122.34626 | 11671 ft | 397 kts | 141° |
| 2026-04-07 19:35 | 37.57030 | -122.32397 | 11176 ft | 386 kts | 141° |
| 2026-04-07 19:35 | 37.55060 | -122.30303 | 10999 ft | 355 kts | 140° |
| 2026-04-07 19:35 | 37.53255 | -122.28359 | 10834 ft | 328 kts | 140° |
| 2026-04-07 19:35 | 37.51582 | -122.26553 | 10611 ft | 306 kts | 140° |
| 2026-04-07 19:36 | 37.50002 | -122.24847 | 10276 ft | 294 kts | 141° |
| 2026-04-07 19:36 | 37.48485 | -122.23208 | 9809 ft | 288 kts | 141° |
| 2026-04-07 19:36 | 37.46946 | -122.21545 | 9183 ft | 287 kts | 140° |
| 2026-04-07 19:36 | 37.45440 | -122.19949 | 8615 ft | 285 kts | 144° |
| 2026-04-07 19:37 | 37.43709 | -122.18767 | 7972 ft | 284 kts | 160° |
| 2026-04-07 19:37 | 37.42003 | -122.17621 | 7425 ft | 278 kts | 137° |
| 2026-04-07 19:37 | 37.41027 | -122.15588 | 6773 ft | 272 kts | 101° |
| 2026-04-07 19:37 | 37.41125 | -122.13233 | 6050 ft | 264 kts | 65° |
| 2026-04-07 19:38 | 37.42072 | -122.11371 | 5593 ft | 255 kts | 40° |
| 2026-04-07 19:38 | 37.43574 | -122.10211 | 5277 ft | 253 kts | 15° |
| 2026-04-07 19:38 | 37.45317 | -122.10002 | 4983 ft | 256 kts | 351° |
| 2026-04-07 19:38 | 37.46995 | -122.10682 | 4730 ft | 253 kts | 329° |
| 2026-04-07 19:39 | 37.48349 | -122.12021 | 4458 ft | 242 kts | 320° |
| 2026-04-07 19:39 | 37.49671 | -122.13323 | 4149 ft | 241 kts | 323° |
| 2026-04-07 19:39 | 37.50975 | -122.14611 | 3849 ft | 231 kts | 321° |
| 2026-04-07 19:39 | 37.52169 | -122.15828 | 3576 ft | 211 kts | 321° |
| 2026-04-07 19:40 | 37.53235 | -122.16962 | 3366 ft | 191 kts | 313° |
| 2026-04-07 19:40 | 37.53972 | -122.18275 | 3112 ft | 176 kts | 303° |
| 2026-04-07 19:40 | 37.54560 | -122.19558 | 2895 ft | 164 kts | 301° |
| 2026-04-07 19:40 | 37.55096 | -122.20813 | 2692 ft | 162 kts | 300° |
| 2026-04-07 19:41 | 37.55624 | -122.22071 | 2486 ft | 165 kts | 300° |
| 2026-04-07 19:41 | 37.56160 | -122.23356 | 2262 ft | 165 kts | 299° |
| 2026-04-07 19:41 | 37.56693 | -122.24623 | 2043 ft | 162 kts | 298° |
| 2026-04-07 19:41 | 37.57186 | -122.25808 | 1835 ft | 142 kts | 298° |
| 2026-04-07 19:42 | 37.57633 | -122.26854 | 1670 ft | 130 kts | 298° |
| 2026-04-07 19:42 | 37.58058 | -122.27844 | 1481 ft | 128 kts | 297° |
| 2026-04-07 19:42 | 37.58466 | -122.28824 | 1291 ft | 124 kts | 296° |
| 2026-04-07 19:42 | 37.58871 | -122.29783 | 1110 ft | 125 kts | 296° |
| 2026-04-07 19:43 | 37.59281 | -122.30763 | 949 ft | 127 kts | 296° |
| 2026-04-07 19:43 | 37.59696 | -122.31750 | 758 ft | 127 kts | 298° |
| 2026-04-07 19:43 | 37.60108 | -122.32730 | 599 ft | 125 kts | 298° |
| 2026-04-07 19:43 | 37.60503 | -122.33706 | 433 ft | 126 kts | 297° |
| 2026-04-07 19:44 | 37.60909 | -122.34679 | 295 ft | 123 kts | 298° |
| 2026-04-07 19:44 | 37.61313 | -122.35628 | 110 ft | 124 kts | 298° |
| 2026-04-07 19:44 | 37.61703 | -122.36550 | 28 ft | 107 kts | 298° |
| 2026-04-07 19:44 | 37.61993 | -122.37238 | 27 ft | 68 kts | 298° |
| 2026-04-07 19:45 | 37.62174 | -122.37667 | 26 ft | 39 kts | 297° |
| 2026-04-07 19:45 | 37.62235 | -122.37964 | 26 ft | 32 kts | 272° |
| 2026-04-07 19:45 | 37.62205 | -122.38168 | 26 ft | 20 kts | 229° |
| 2026-04-07 19:45 | 37.62103 | -122.38250 | 26 ft | 16 kts | 211° |
| 2026-04-07 19:46 | 37.62026 | -122.38318 | 26 ft | 20 kts | 233° |
| 2026-04-07 19:46 | 37.62063 | -122.38445 | 26 ft | 16 kts | 301° |
| 2026-04-07 19:46 | 37.62119 | -122.38567 | 26 ft | 15 kts | 299° |
| 2026-04-07 19:46 | 37.62158 | -122.38655 | 26 ft | 4 kts | 298° |
| 2026-04-07 19:47 | 37.62168 | -122.38683 | 26 ft | 3 kts | 295° |
| 2026-04-07 19:47 | 37.62202 | -122.38772 | 26 ft | 18 kts | 297° |
| 2026-04-07 19:47 | 37.62214 | -122.38870 | 26 ft | 9 kts | 224° |
| 2026-04-07 19:47 | 37.62162 | -122.38907 | 25 ft | 7 kts | 208° |
| 2026-04-07 19:48 | 37.62140 | -122.38922 | 26 ft | 2 kts | 207° |
| 2026-04-07 19:48 | 37.62136 | -122.38925 | 26 ft | 0 kts | 207° |